<?xml version="1.0" encoding="UTF-8" standalone="no" ?>
<gpx xmlns="http://www.topografix.com/GPX/1/1" xmlns:xsi="http://www.w3.org/2001/XMLSchema-instance" xsi:schemaLocation="http://www.topografix.com/GPX/1/1 http://www.topografix.com/GPX/1/1/gpx.xsd" version="1.1" creator="VisuGPX - https://www.visugpx.com">
  <metadata>
    <name>Sortie 17 mai 2014</name>
    <desc><![CDATA[Place Dalbera/ pylone/ Camp Soubran/ Chateau des voleurs/ Place Dalbera]]></desc>
  </metadata>
  <trk>
    <name><![CDATA[Mountain Biking 5/17/14 9:39 am]]></name>
    <trkseg>
      <trkpt lat="43.75506" lon="7.29642">
        <ele>353</ele>
        <time>2014-05-17T09:39:58Z</time>
      </trkpt>
      <trkpt lat="43.75514" lon="7.29647">
        <ele>353.3</ele>
        <time>2014-05-17T09:39:59Z</time>
      </trkpt>
      <trkpt lat="43.75498" lon="7.29651">
        <ele>353.5</ele>
        <time>2014-05-17T09:40:04Z</time>
      </trkpt>
      <trkpt lat="43.75506" lon="7.29647">
        <ele>353.7</ele>
        <time>2014-05-17T09:40:14Z</time>
      </trkpt>
      <trkpt lat="43.75512" lon="7.29637">
        <ele>353.8</ele>
        <time>2014-05-17T09:40:18Z</time>
      </trkpt>
      <trkpt lat="43.75517" lon="7.29626">
        <ele>353.9</ele>
        <time>2014-05-17T09:40:21Z</time>
      </trkpt>
      <trkpt lat="43.75521" lon="7.29613">
        <ele>354.5</ele>
        <time>2014-05-17T09:40:24Z</time>
      </trkpt>
      <trkpt lat="43.75524" lon="7.29602">
        <ele>355.2</ele>
        <time>2014-05-17T09:40:27Z</time>
      </trkpt>
      <trkpt lat="43.75528" lon="7.29589">
        <ele>355.8</ele>
        <time>2014-05-17T09:40:30Z</time>
      </trkpt>
      <trkpt lat="43.75532" lon="7.29576">
        <ele>356.5</ele>
        <time>2014-05-17T09:40:33Z</time>
      </trkpt>
      <trkpt lat="43.75533" lon="7.29562">
        <ele>356.8</ele>
        <time>2014-05-17T09:40:36Z</time>
      </trkpt>
      <trkpt lat="43.75532" lon="7.29549">
        <ele>357.2</ele>
        <time>2014-05-17T09:40:39Z</time>
      </trkpt>
      <trkpt lat="43.7553" lon="7.29538">
        <ele>357.5</ele>
        <time>2014-05-17T09:40:43Z</time>
      </trkpt>
      <trkpt lat="43.75528" lon="7.29525">
        <ele>359.5</ele>
        <time>2014-05-17T09:40:47Z</time>
      </trkpt>
      <trkpt lat="43.7553" lon="7.29515">
        <ele>360.9</ele>
        <time>2014-05-17T09:40:51Z</time>
      </trkpt>
      <trkpt lat="43.75533" lon="7.29502">
        <ele>362.3</ele>
        <time>2014-05-17T09:40:56Z</time>
      </trkpt>
      <trkpt lat="43.75538" lon="7.29492">
        <ele>363.6</ele>
        <time>2014-05-17T09:41:00Z</time>
      </trkpt>
      <trkpt lat="43.75542" lon="7.2948">
        <ele>364.6</ele>
        <time>2014-05-17T09:41:07Z</time>
      </trkpt>
      <trkpt lat="43.75548" lon="7.2947">
        <ele>365.6</ele>
        <time>2014-05-17T09:41:11Z</time>
      </trkpt>
      <trkpt lat="43.75551" lon="7.29459">
        <ele>366.6</ele>
        <time>2014-05-17T09:41:16Z</time>
      </trkpt>
      <trkpt lat="43.75556" lon="7.29451">
        <ele>367.6</ele>
        <time>2014-05-17T09:41:21Z</time>
      </trkpt>
      <trkpt lat="43.75564" lon="7.29443">
        <ele>368.6</ele>
        <time>2014-05-17T09:41:27Z</time>
      </trkpt>
      <trkpt lat="43.75574" lon="7.29437">
        <ele>369.6</ele>
        <time>2014-05-17T09:41:31Z</time>
      </trkpt>
      <trkpt lat="43.75583" lon="7.2943">
        <ele>370.6</ele>
        <time>2014-05-17T09:41:35Z</time>
      </trkpt>
      <trkpt lat="43.75589" lon="7.29422">
        <ele>369.7</ele>
        <time>2014-05-17T09:41:40Z</time>
      </trkpt>
      <trkpt lat="43.75597" lon="7.29414">
        <ele>369.5</ele>
        <time>2014-05-17T09:41:46Z</time>
      </trkpt>
      <trkpt lat="43.75604" lon="7.29405">
        <ele>371.8</ele>
        <time>2014-05-17T09:41:52Z</time>
      </trkpt>
      <trkpt lat="43.7561" lon="7.29396">
        <ele>374.2</ele>
        <time>2014-05-17T09:41:58Z</time>
      </trkpt>
      <trkpt lat="43.75616" lon="7.29385">
        <ele>376.5</ele>
        <time>2014-05-17T09:42:04Z</time>
      </trkpt>
      <trkpt lat="43.7562" lon="7.29374">
        <ele>378.9</ele>
        <time>2014-05-17T09:42:09Z</time>
      </trkpt>
      <trkpt lat="43.75625" lon="7.29364">
        <ele>378.6</ele>
        <time>2014-05-17T09:42:16Z</time>
      </trkpt>
      <trkpt lat="43.7563" lon="7.29354">
        <ele>378.4</ele>
        <time>2014-05-17T09:42:22Z</time>
      </trkpt>
      <trkpt lat="43.75633" lon="7.29342">
        <ele>378.5</ele>
        <time>2014-05-17T09:42:30Z</time>
      </trkpt>
      <trkpt lat="43.75631" lon="7.2933">
        <ele>380.9</ele>
        <time>2014-05-17T09:42:37Z</time>
      </trkpt>
      <trkpt lat="43.75629" lon="7.29318">
        <ele>383.4</ele>
        <time>2014-05-17T09:42:45Z</time>
      </trkpt>
      <trkpt lat="43.75625" lon="7.29307">
        <ele>386.1</ele>
        <time>2014-05-17T09:42:51Z</time>
      </trkpt>
      <trkpt lat="43.75622" lon="7.29296">
        <ele>388.8</ele>
        <time>2014-05-17T09:42:56Z</time>
      </trkpt>
      <trkpt lat="43.75624" lon="7.29285">
        <ele>388.9</ele>
        <time>2014-05-17T09:43:02Z</time>
      </trkpt>
      <trkpt lat="43.75627" lon="7.29275">
        <ele>389</ele>
        <time>2014-05-17T09:43:09Z</time>
      </trkpt>
      <trkpt lat="43.75631" lon="7.29264">
        <ele>389</ele>
        <time>2014-05-17T09:43:14Z</time>
      </trkpt>
      <trkpt lat="43.75634" lon="7.29253">
        <ele>389</ele>
        <time>2014-05-17T09:43:19Z</time>
      </trkpt>
      <trkpt lat="43.75633" lon="7.2924">
        <ele>391.6</ele>
        <time>2014-05-17T09:43:24Z</time>
      </trkpt>
      <trkpt lat="43.75633" lon="7.29225">
        <ele>394.3</ele>
        <time>2014-05-17T09:43:29Z</time>
      </trkpt>
      <trkpt lat="43.75634" lon="7.29213">
        <ele>396.5</ele>
        <time>2014-05-17T09:43:35Z</time>
      </trkpt>
      <trkpt lat="43.75639" lon="7.29203">
        <ele>396.5</ele>
        <time>2014-05-17T09:43:40Z</time>
      </trkpt>
      <trkpt lat="43.75641" lon="7.29192">
        <ele>396.4</ele>
        <time>2014-05-17T09:43:46Z</time>
      </trkpt>
      <trkpt lat="43.75643" lon="7.29177">
        <ele>395.1</ele>
        <time>2014-05-17T09:44:11Z</time>
      </trkpt>
      <trkpt lat="43.75645" lon="7.29165">
        <ele>395</ele>
        <time>2014-05-17T09:44:17Z</time>
      </trkpt>
      <trkpt lat="43.75646" lon="7.29154">
        <ele>394.9</ele>
        <time>2014-05-17T09:44:22Z</time>
      </trkpt>
      <trkpt lat="43.7565" lon="7.29143">
        <ele>394.8</ele>
        <time>2014-05-17T09:44:29Z</time>
      </trkpt>
      <trkpt lat="43.75654" lon="7.29131">
        <ele>394.8</ele>
        <time>2014-05-17T09:44:35Z</time>
      </trkpt>
      <trkpt lat="43.75661" lon="7.29125">
        <ele>394.8</ele>
        <time>2014-05-17T09:44:42Z</time>
      </trkpt>
      <trkpt lat="43.75664" lon="7.29135">
        <ele>394.8</ele>
        <time>2014-05-17T09:44:49Z</time>
      </trkpt>
      <trkpt lat="43.75662" lon="7.29147">
        <ele>394.8</ele>
        <time>2014-05-17T09:44:54Z</time>
      </trkpt>
      <trkpt lat="43.75661" lon="7.29159">
        <ele>394.9</ele>
        <time>2014-05-17T09:44:59Z</time>
      </trkpt>
      <trkpt lat="43.75662" lon="7.29171">
        <ele>395</ele>
        <time>2014-05-17T09:45:05Z</time>
      </trkpt>
      <trkpt lat="43.75665" lon="7.29183">
        <ele>395.1</ele>
        <time>2014-05-17T09:45:11Z</time>
      </trkpt>
      <trkpt lat="43.75667" lon="7.29194">
        <ele>396.4</ele>
        <time>2014-05-17T09:45:16Z</time>
      </trkpt>
      <trkpt lat="43.75669" lon="7.29205">
        <ele>396.5</ele>
        <time>2014-05-17T09:45:19Z</time>
      </trkpt>
      <trkpt lat="43.7567" lon="7.29219">
        <ele>396.5</ele>
        <time>2014-05-17T09:45:25Z</time>
      </trkpt>
      <trkpt lat="43.75671" lon="7.29231">
        <ele>396.6</ele>
        <time>2014-05-17T09:45:31Z</time>
      </trkpt>
      <trkpt lat="43.75675" lon="7.29243">
        <ele>396.6</ele>
        <time>2014-05-17T09:45:36Z</time>
      </trkpt>
      <trkpt lat="43.7568" lon="7.29253">
        <ele>396.6</ele>
        <time>2014-05-17T09:45:41Z</time>
      </trkpt>
      <trkpt lat="43.75687" lon="7.29262">
        <ele>396.6</ele>
        <time>2014-05-17T09:45:46Z</time>
      </trkpt>
      <trkpt lat="43.75693" lon="7.29273">
        <ele>396.6</ele>
        <time>2014-05-17T09:45:51Z</time>
      </trkpt>
      <trkpt lat="43.75697" lon="7.29283">
        <ele>396.5</ele>
        <time>2014-05-17T09:45:55Z</time>
      </trkpt>
      <trkpt lat="43.757" lon="7.29296">
        <ele>396.5</ele>
        <time>2014-05-17T09:46:01Z</time>
      </trkpt>
      <trkpt lat="43.75699" lon="7.29307">
        <ele>396.4</ele>
        <time>2014-05-17T09:46:06Z</time>
      </trkpt>
      <trkpt lat="43.75699" lon="7.2932">
        <ele>396.5</ele>
        <time>2014-05-17T09:46:11Z</time>
      </trkpt>
      <trkpt lat="43.757" lon="7.29334">
        <ele>396.7</ele>
        <time>2014-05-17T09:46:18Z</time>
      </trkpt>
      <trkpt lat="43.75703" lon="7.29347">
        <ele>396.9</ele>
        <time>2014-05-17T09:46:23Z</time>
      </trkpt>
      <trkpt lat="43.75701" lon="7.2936">
        <ele>397.1</ele>
        <time>2014-05-17T09:46:28Z</time>
      </trkpt>
      <trkpt lat="43.757" lon="7.29372">
        <ele>397.4</ele>
        <time>2014-05-17T09:46:32Z</time>
      </trkpt>
      <trkpt lat="43.75701" lon="7.29385">
        <ele>397.6</ele>
        <time>2014-05-17T09:46:38Z</time>
      </trkpt>
      <trkpt lat="43.75702" lon="7.29397">
        <ele>398.1</ele>
        <time>2014-05-17T09:46:43Z</time>
      </trkpt>
      <trkpt lat="43.757" lon="7.29409">
        <ele>398.5</ele>
        <time>2014-05-17T09:46:48Z</time>
      </trkpt>
      <trkpt lat="43.75698" lon="7.29423">
        <ele>399</ele>
        <time>2014-05-17T09:46:53Z</time>
      </trkpt>
      <trkpt lat="43.75696" lon="7.29436">
        <ele>399.5</ele>
        <time>2014-05-17T09:46:57Z</time>
      </trkpt>
      <trkpt lat="43.75694" lon="7.29449">
        <ele>402</ele>
        <time>2014-05-17T09:47:02Z</time>
      </trkpt>
      <trkpt lat="43.75697" lon="7.29462">
        <ele>404.3</ele>
        <time>2014-05-17T09:47:08Z</time>
      </trkpt>
      <trkpt lat="43.757" lon="7.29473">
        <ele>404.5</ele>
        <time>2014-05-17T09:47:13Z</time>
      </trkpt>
      <trkpt lat="43.75699" lon="7.29485">
        <ele>407.5</ele>
        <time>2014-05-17T09:47:17Z</time>
      </trkpt>
      <trkpt lat="43.75702" lon="7.29496">
        <ele>410.5</ele>
        <time>2014-05-17T09:47:25Z</time>
      </trkpt>
      <trkpt lat="43.75711" lon="7.29495">
        <ele>413.5</ele>
        <time>2014-05-17T09:51:05Z</time>
      </trkpt>
      <trkpt lat="43.75711" lon="7.29484">
        <ele>416.5</ele>
        <time>2014-05-17T09:51:16Z</time>
      </trkpt>
      <trkpt lat="43.75709" lon="7.29471">
        <ele>419.3</ele>
        <time>2014-05-17T09:51:21Z</time>
      </trkpt>
      <trkpt lat="43.7571" lon="7.29458">
        <ele>422.1</ele>
        <time>2014-05-17T09:51:27Z</time>
      </trkpt>
      <trkpt lat="43.75711" lon="7.29445">
        <ele>424.9</ele>
        <time>2014-05-17T09:51:33Z</time>
      </trkpt>
      <trkpt lat="43.75713" lon="7.29434">
        <ele>427.2</ele>
        <time>2014-05-17T09:51:38Z</time>
      </trkpt>
      <trkpt lat="43.75717" lon="7.29421">
        <ele>427.4</ele>
        <time>2014-05-17T09:51:43Z</time>
      </trkpt>
      <trkpt lat="43.75719" lon="7.29409">
        <ele>427.5</ele>
        <time>2014-05-17T09:51:47Z</time>
      </trkpt>
      <trkpt lat="43.75724" lon="7.29397">
        <ele>429.8</ele>
        <time>2014-05-17T09:51:52Z</time>
      </trkpt>
      <trkpt lat="43.75728" lon="7.29387">
        <ele>429.3</ele>
        <time>2014-05-17T09:51:57Z</time>
      </trkpt>
      <trkpt lat="43.75735" lon="7.29377">
        <ele>428.7</ele>
        <time>2014-05-17T09:52:02Z</time>
      </trkpt>
      <trkpt lat="43.7574" lon="7.29366">
        <ele>428.2</ele>
        <time>2014-05-17T09:52:07Z</time>
      </trkpt>
      <trkpt lat="43.75744" lon="7.29355">
        <ele>427.6</ele>
        <time>2014-05-17T09:52:11Z</time>
      </trkpt>
      <trkpt lat="43.75747" lon="7.29344">
        <ele>426.7</ele>
        <time>2014-05-17T09:52:17Z</time>
      </trkpt>
      <trkpt lat="43.7575" lon="7.29332">
        <ele>425.8</ele>
        <time>2014-05-17T09:52:22Z</time>
      </trkpt>
      <trkpt lat="43.75755" lon="7.29321">
        <ele>424.9</ele>
        <time>2014-05-17T09:52:28Z</time>
      </trkpt>
      <trkpt lat="43.7576" lon="7.2931">
        <ele>424.5</ele>
        <time>2014-05-17T09:52:33Z</time>
      </trkpt>
      <trkpt lat="43.75763" lon="7.293">
        <ele>424.2</ele>
        <time>2014-05-17T09:52:38Z</time>
      </trkpt>
      <trkpt lat="43.75768" lon="7.2929">
        <ele>423.8</ele>
        <time>2014-05-17T09:52:44Z</time>
      </trkpt>
      <trkpt lat="43.75772" lon="7.29279">
        <ele>425</ele>
        <time>2014-05-17T09:52:50Z</time>
      </trkpt>
      <trkpt lat="43.75777" lon="7.2927">
        <ele>426.2</ele>
        <time>2014-05-17T09:52:56Z</time>
      </trkpt>
      <trkpt lat="43.75782" lon="7.2926">
        <ele>427.4</ele>
        <time>2014-05-17T09:53:01Z</time>
      </trkpt>
      <trkpt lat="43.75786" lon="7.2925">
        <ele>428.5</ele>
        <time>2014-05-17T09:53:09Z</time>
      </trkpt>
      <trkpt lat="43.75794" lon="7.29244">
        <ele>428.3</ele>
        <time>2014-05-17T09:53:15Z</time>
      </trkpt>
      <trkpt lat="43.75802" lon="7.29237">
        <ele>428.4</ele>
        <time>2014-05-17T09:53:22Z</time>
      </trkpt>
      <trkpt lat="43.75809" lon="7.29229">
        <ele>428.5</ele>
        <time>2014-05-17T09:53:28Z</time>
      </trkpt>
      <trkpt lat="43.75817" lon="7.29224">
        <ele>428.5</ele>
        <time>2014-05-17T09:53:34Z</time>
      </trkpt>
      <trkpt lat="43.75825" lon="7.29217">
        <ele>428.6</ele>
        <time>2014-05-17T09:53:41Z</time>
      </trkpt>
      <trkpt lat="43.75833" lon="7.29211">
        <ele>428.7</ele>
        <time>2014-05-17T09:53:46Z</time>
      </trkpt>
      <trkpt lat="43.7584" lon="7.29205">
        <ele>430</ele>
        <time>2014-05-17T09:53:51Z</time>
      </trkpt>
      <trkpt lat="43.7585" lon="7.29198">
        <ele>429.7</ele>
        <time>2014-05-17T09:53:54Z</time>
      </trkpt>
      <trkpt lat="43.7586" lon="7.29197">
        <ele>429.5</ele>
        <time>2014-05-17T09:53:57Z</time>
      </trkpt>
      <trkpt lat="43.75868" lon="7.29195">
        <ele>429.2</ele>
        <time>2014-05-17T09:54:01Z</time>
      </trkpt>
      <trkpt lat="43.75876" lon="7.29192">
        <ele>428.9</ele>
        <time>2014-05-17T09:54:06Z</time>
      </trkpt>
      <trkpt lat="43.75884" lon="7.29189">
        <ele>430.1</ele>
        <time>2014-05-17T09:54:13Z</time>
      </trkpt>
      <trkpt lat="43.75893" lon="7.29192">
        <ele>431.3</ele>
        <time>2014-05-17T09:54:22Z</time>
      </trkpt>
      <trkpt lat="43.75901" lon="7.29193">
        <ele>432.5</ele>
        <time>2014-05-17T09:54:26Z</time>
      </trkpt>
      <trkpt lat="43.75909" lon="7.29191">
        <ele>433.6</ele>
        <time>2014-05-17T09:54:32Z</time>
      </trkpt>
      <trkpt lat="43.75919" lon="7.29188">
        <ele>435.7</ele>
        <time>2014-05-17T09:54:40Z</time>
      </trkpt>
      <trkpt lat="43.75928" lon="7.29186">
        <ele>437.8</ele>
        <time>2014-05-17T09:54:47Z</time>
      </trkpt>
      <trkpt lat="43.75937" lon="7.29185">
        <ele>438.7</ele>
        <time>2014-05-17T09:54:53Z</time>
      </trkpt>
      <trkpt lat="43.75949" lon="7.29185">
        <ele>439.6</ele>
        <time>2014-05-17T09:54:59Z</time>
      </trkpt>
      <trkpt lat="43.75959" lon="7.29182">
        <ele>440.5</ele>
        <time>2014-05-17T09:55:05Z</time>
      </trkpt>
      <trkpt lat="43.75969" lon="7.29181">
        <ele>441.5</ele>
        <time>2014-05-17T09:55:10Z</time>
      </trkpt>
      <trkpt lat="43.75978" lon="7.29178">
        <ele>442.4</ele>
        <time>2014-05-17T09:55:17Z</time>
      </trkpt>
      <trkpt lat="43.75987" lon="7.29176">
        <ele>443.3</ele>
        <time>2014-05-17T09:55:23Z</time>
      </trkpt>
      <trkpt lat="43.75995" lon="7.29175">
        <ele>444.2</ele>
        <time>2014-05-17T09:55:29Z</time>
      </trkpt>
      <trkpt lat="43.76004" lon="7.29176">
        <ele>446.5</ele>
        <time>2014-05-17T09:55:33Z</time>
      </trkpt>
      <trkpt lat="43.76012" lon="7.29176">
        <ele>448.9</ele>
        <time>2014-05-17T09:55:38Z</time>
      </trkpt>
      <trkpt lat="43.76021" lon="7.29177">
        <ele>450.4</ele>
        <time>2014-05-17T09:55:44Z</time>
      </trkpt>
      <trkpt lat="43.76029" lon="7.29175">
        <ele>451.8</ele>
        <time>2014-05-17T09:55:50Z</time>
      </trkpt>
      <trkpt lat="43.76038" lon="7.29172">
        <ele>453.3</ele>
        <time>2014-05-17T09:55:56Z</time>
      </trkpt>
      <trkpt lat="43.76046" lon="7.2917">
        <ele>454.7</ele>
        <time>2014-05-17T09:56:01Z</time>
      </trkpt>
      <trkpt lat="43.76055" lon="7.29168">
        <ele>457.1</ele>
        <time>2014-05-17T09:56:05Z</time>
      </trkpt>
      <trkpt lat="43.76063" lon="7.29166">
        <ele>459.5</ele>
        <time>2014-05-17T09:56:09Z</time>
      </trkpt>
      <trkpt lat="43.76072" lon="7.29161">
        <ele>461.8</ele>
        <time>2014-05-17T09:56:14Z</time>
      </trkpt>
      <trkpt lat="43.76079" lon="7.29154">
        <ele>464.2</ele>
        <time>2014-05-17T09:56:19Z</time>
      </trkpt>
      <trkpt lat="43.76081" lon="7.29143">
        <ele>466.5</ele>
        <time>2014-05-17T09:56:25Z</time>
      </trkpt>
      <trkpt lat="43.76081" lon="7.2913">
        <ele>467.5</ele>
        <time>2014-05-17T09:56:31Z</time>
      </trkpt>
      <trkpt lat="43.76081" lon="7.29118">
        <ele>468.4</ele>
        <time>2014-05-17T09:56:38Z</time>
      </trkpt>
      <trkpt lat="43.76077" lon="7.29108">
        <ele>469.3</ele>
        <time>2014-05-17T09:56:46Z</time>
      </trkpt>
      <trkpt lat="43.76073" lon="7.29097">
        <ele>470.2</ele>
        <time>2014-05-17T09:56:52Z</time>
      </trkpt>
      <trkpt lat="43.76063" lon="7.29085">
        <ele>471.1</ele>
        <time>2014-05-17T09:59:19Z</time>
      </trkpt>
      <trkpt lat="43.76071" lon="7.29079">
        <ele>474</ele>
        <time>2014-05-17T09:59:51Z</time>
      </trkpt>
      <trkpt lat="43.76064" lon="7.29086">
        <ele>473</ele>
        <time>2014-05-17T10:01:43Z</time>
      </trkpt>
      <trkpt lat="43.7606" lon="7.29074">
        <ele>472</ele>
        <time>2014-05-17T10:04:21Z</time>
      </trkpt>
      <trkpt lat="43.76058" lon="7.29062">
        <ele>471</ele>
        <time>2014-05-17T10:04:24Z</time>
      </trkpt>
      <trkpt lat="43.76053" lon="7.29051">
        <ele>470</ele>
        <time>2014-05-17T10:04:30Z</time>
      </trkpt>
      <trkpt lat="43.76046" lon="7.29041">
        <ele>469</ele>
        <time>2014-05-17T10:04:36Z</time>
      </trkpt>
      <trkpt lat="43.76041" lon="7.29031">
        <ele>468</ele>
        <time>2014-05-17T10:04:41Z</time>
      </trkpt>
      <trkpt lat="43.76037" lon="7.2902">
        <ele>467</ele>
        <time>2014-05-17T10:04:47Z</time>
      </trkpt>
      <trkpt lat="43.76032" lon="7.2901">
        <ele>466.7</ele>
        <time>2014-05-17T10:04:53Z</time>
      </trkpt>
      <trkpt lat="43.76025" lon="7.29002">
        <ele>466.5</ele>
        <time>2014-05-17T10:04:59Z</time>
      </trkpt>
      <trkpt lat="43.76018" lon="7.28992">
        <ele>466.2</ele>
        <time>2014-05-17T10:05:06Z</time>
      </trkpt>
      <trkpt lat="43.76011" lon="7.28983">
        <ele>463.9</ele>
        <time>2014-05-17T10:05:12Z</time>
      </trkpt>
      <trkpt lat="43.76004" lon="7.28974">
        <ele>464.6</ele>
        <time>2014-05-17T10:05:16Z</time>
      </trkpt>
      <trkpt lat="43.75999" lon="7.28964">
        <ele>465.4</ele>
        <time>2014-05-17T10:05:21Z</time>
      </trkpt>
      <trkpt lat="43.75994" lon="7.28954">
        <ele>466.1</ele>
        <time>2014-05-17T10:05:28Z</time>
      </trkpt>
      <trkpt lat="43.75989" lon="7.28944">
        <ele>466.8</ele>
        <time>2014-05-17T10:05:34Z</time>
      </trkpt>
      <trkpt lat="43.7599" lon="7.28931">
        <ele>467.5</ele>
        <time>2014-05-17T10:05:40Z</time>
      </trkpt>
      <trkpt lat="43.7599" lon="7.28917">
        <ele>468.3</ele>
        <time>2014-05-17T10:05:46Z</time>
      </trkpt>
      <trkpt lat="43.75995" lon="7.28906">
        <ele>469</ele>
        <time>2014-05-17T10:05:52Z</time>
      </trkpt>
      <trkpt lat="43.76003" lon="7.28898">
        <ele>469</ele>
        <time>2014-05-17T10:05:58Z</time>
      </trkpt>
      <trkpt lat="43.76007" lon="7.28909">
        <ele>469</ele>
        <time>2014-05-17T10:06:05Z</time>
      </trkpt>
      <trkpt lat="43.76004" lon="7.2892">
        <ele>469</ele>
        <time>2014-05-17T10:06:12Z</time>
      </trkpt>
      <trkpt lat="43.76003" lon="7.28932">
        <ele>469</ele>
        <time>2014-05-17T10:06:18Z</time>
      </trkpt>
      <trkpt lat="43.76005" lon="7.28943">
        <ele>468.3</ele>
        <time>2014-05-17T10:06:25Z</time>
      </trkpt>
      <trkpt lat="43.76012" lon="7.28949">
        <ele>470.5</ele>
        <time>2014-05-17T10:06:30Z</time>
      </trkpt>
      <trkpt lat="43.76021" lon="7.28953">
        <ele>472.8</ele>
        <time>2014-05-17T10:06:35Z</time>
      </trkpt>
      <trkpt lat="43.76029" lon="7.28959">
        <ele>475.1</ele>
        <time>2014-05-17T10:06:41Z</time>
      </trkpt>
      <trkpt lat="43.76037" lon="7.28966">
        <ele>477.4</ele>
        <time>2014-05-17T10:06:49Z</time>
      </trkpt>
      <trkpt lat="43.76044" lon="7.28975">
        <ele>479.6</ele>
        <time>2014-05-17T10:06:56Z</time>
      </trkpt>
      <trkpt lat="43.7605" lon="7.28985">
        <ele>481.9</ele>
        <time>2014-05-17T10:07:03Z</time>
      </trkpt>
      <trkpt lat="43.76058" lon="7.28991">
        <ele>484.2</ele>
        <time>2014-05-17T10:07:08Z</time>
      </trkpt>
      <trkpt lat="43.76065" lon="7.28998">
        <ele>486.5</ele>
        <time>2014-05-17T10:07:13Z</time>
      </trkpt>
      <trkpt lat="43.76074" lon="7.29003">
        <ele>488.7</ele>
        <time>2014-05-17T10:07:20Z</time>
      </trkpt>
      <trkpt lat="43.76082" lon="7.29008">
        <ele>491</ele>
        <time>2014-05-17T10:07:53Z</time>
      </trkpt>
      <trkpt lat="43.7609" lon="7.29014">
        <ele>492</ele>
        <time>2014-05-17T10:10:54Z</time>
      </trkpt>
      <trkpt lat="43.76097" lon="7.29022">
        <ele>492.3</ele>
        <time>2014-05-17T10:11:16Z</time>
      </trkpt>
      <trkpt lat="43.76104" lon="7.29028">
        <ele>492.5</ele>
        <time>2014-05-17T10:11:22Z</time>
      </trkpt>
      <trkpt lat="43.76112" lon="7.29034">
        <ele>492.8</ele>
        <time>2014-05-17T10:11:27Z</time>
      </trkpt>
      <trkpt lat="43.76118" lon="7.29042">
        <ele>493.1</ele>
        <time>2014-05-17T10:11:31Z</time>
      </trkpt>
      <trkpt lat="43.76125" lon="7.29049">
        <ele>493.4</ele>
        <time>2014-05-17T10:11:35Z</time>
      </trkpt>
      <trkpt lat="43.76134" lon="7.29056">
        <ele>493.6</ele>
        <time>2014-05-17T10:11:38Z</time>
      </trkpt>
      <trkpt lat="43.76141" lon="7.29064">
        <ele>493.9</ele>
        <time>2014-05-17T10:11:42Z</time>
      </trkpt>
      <trkpt lat="43.76149" lon="7.29069">
        <ele>494.2</ele>
        <time>2014-05-17T10:11:47Z</time>
      </trkpt>
      <trkpt lat="43.76157" lon="7.29074">
        <ele>494.5</ele>
        <time>2014-05-17T10:11:54Z</time>
      </trkpt>
      <trkpt lat="43.76165" lon="7.29081">
        <ele>494.7</ele>
        <time>2014-05-17T10:11:58Z</time>
      </trkpt>
      <trkpt lat="43.76173" lon="7.29088">
        <ele>497</ele>
        <time>2014-05-17T10:12:03Z</time>
      </trkpt>
      <trkpt lat="43.7618" lon="7.29096">
        <ele>498.3</ele>
        <time>2014-05-17T10:12:08Z</time>
      </trkpt>
      <trkpt lat="43.76187" lon="7.29105">
        <ele>499.5</ele>
        <time>2014-05-17T10:12:13Z</time>
      </trkpt>
      <trkpt lat="43.76192" lon="7.29113">
        <ele>500.8</ele>
        <time>2014-05-17T10:12:18Z</time>
      </trkpt>
      <trkpt lat="43.76199" lon="7.29121">
        <ele>502.1</ele>
        <time>2014-05-17T10:12:25Z</time>
      </trkpt>
      <trkpt lat="43.76207" lon="7.29129">
        <ele>502.8</ele>
        <time>2014-05-17T10:12:32Z</time>
      </trkpt>
      <trkpt lat="43.76216" lon="7.2913">
        <ele>503.5</ele>
        <time>2014-05-17T10:12:37Z</time>
      </trkpt>
      <trkpt lat="43.76226" lon="7.29129">
        <ele>504.8</ele>
        <time>2014-05-17T10:12:41Z</time>
      </trkpt>
      <trkpt lat="43.76235" lon="7.2913">
        <ele>506.1</ele>
        <time>2014-05-17T10:12:44Z</time>
      </trkpt>
      <trkpt lat="43.76243" lon="7.2913">
        <ele>506.8</ele>
        <time>2014-05-17T10:12:47Z</time>
      </trkpt>
      <trkpt lat="43.76252" lon="7.29134">
        <ele>507.5</ele>
        <time>2014-05-17T10:12:51Z</time>
      </trkpt>
      <trkpt lat="43.7626" lon="7.29134">
        <ele>508.3</ele>
        <time>2014-05-17T10:13:05Z</time>
      </trkpt>
      <trkpt lat="43.76251" lon="7.29127">
        <ele>507.7</ele>
        <time>2014-05-17T10:14:46Z</time>
      </trkpt>
      <trkpt lat="43.76261" lon="7.29123">
        <ele>508.5</ele>
        <time>2014-05-17T10:17:56Z</time>
      </trkpt>
      <trkpt lat="43.76267" lon="7.29131">
        <ele>509.4</ele>
        <time>2014-05-17T10:21:31Z</time>
      </trkpt>
      <trkpt lat="43.76273" lon="7.29141">
        <ele>510.2</ele>
        <time>2014-05-17T10:21:36Z</time>
      </trkpt>
      <trkpt lat="43.7628" lon="7.29147">
        <ele>511.5</ele>
        <time>2014-05-17T10:21:40Z</time>
      </trkpt>
      <trkpt lat="43.76289" lon="7.29146">
        <ele>512.9</ele>
        <time>2014-05-17T10:21:47Z</time>
      </trkpt>
      <trkpt lat="43.763" lon="7.29144">
        <ele>513.7</ele>
        <time>2014-05-17T10:22:20Z</time>
      </trkpt>
      <trkpt lat="43.76307" lon="7.29139">
        <ele>514.5</ele>
        <time>2014-05-17T10:22:31Z</time>
      </trkpt>
      <trkpt lat="43.76316" lon="7.29137">
        <ele>515.9</ele>
        <time>2014-05-17T10:22:35Z</time>
      </trkpt>
      <trkpt lat="43.76323" lon="7.29133">
        <ele>517.3</ele>
        <time>2014-05-17T10:22:39Z</time>
      </trkpt>
      <trkpt lat="43.76332" lon="7.29131">
        <ele>518.6</ele>
        <time>2014-05-17T10:22:43Z</time>
      </trkpt>
      <trkpt lat="43.7634" lon="7.29132">
        <ele>520.5</ele>
        <time>2014-05-17T10:22:48Z</time>
      </trkpt>
      <trkpt lat="43.76349" lon="7.29134">
        <ele>520.9</ele>
        <time>2014-05-17T10:22:53Z</time>
      </trkpt>
      <trkpt lat="43.76358" lon="7.29134">
        <ele>521.4</ele>
        <time>2014-05-17T10:22:58Z</time>
      </trkpt>
      <trkpt lat="43.76368" lon="7.29137">
        <ele>521.8</ele>
        <time>2014-05-17T10:23:03Z</time>
      </trkpt>
      <trkpt lat="43.76376" lon="7.29139">
        <ele>522.3</ele>
        <time>2014-05-17T10:23:07Z</time>
      </trkpt>
      <trkpt lat="43.76385" lon="7.29143">
        <ele>522.7</ele>
        <time>2014-05-17T10:23:12Z</time>
      </trkpt>
      <trkpt lat="43.76394" lon="7.29148">
        <ele>523.2</ele>
        <time>2014-05-17T10:23:16Z</time>
      </trkpt>
      <trkpt lat="43.76402" lon="7.29151">
        <ele>523.6</ele>
        <time>2014-05-17T10:23:22Z</time>
      </trkpt>
      <trkpt lat="43.76415" lon="7.29152">
        <ele>524.1</ele>
        <time>2014-05-17T10:23:46Z</time>
      </trkpt>
      <trkpt lat="43.76423" lon="7.29158">
        <ele>524.2</ele>
        <time>2014-05-17T10:24:44Z</time>
      </trkpt>
      <trkpt lat="43.76432" lon="7.29162">
        <ele>524.3</ele>
        <time>2014-05-17T10:24:49Z</time>
      </trkpt>
      <trkpt lat="43.76436" lon="7.29173">
        <ele>523.9</ele>
        <time>2014-05-17T10:24:54Z</time>
      </trkpt>
      <trkpt lat="43.76445" lon="7.29174">
        <ele>523.5</ele>
        <time>2014-05-17T10:25:00Z</time>
      </trkpt>
      <trkpt lat="43.76453" lon="7.29176">
        <ele>523.2</ele>
        <time>2014-05-17T10:25:03Z</time>
      </trkpt>
      <trkpt lat="43.76462" lon="7.29174">
        <ele>522.8</ele>
        <time>2014-05-17T10:25:08Z</time>
      </trkpt>
      <trkpt lat="43.76471" lon="7.29175">
        <ele>522.5</ele>
        <time>2014-05-17T10:25:12Z</time>
      </trkpt>
      <trkpt lat="43.7648" lon="7.29174">
        <ele>522.1</ele>
        <time>2014-05-17T10:25:17Z</time>
      </trkpt>
      <trkpt lat="43.76496" lon="7.29168">
        <ele>521.7</ele>
        <time>2014-05-17T10:26:46Z</time>
      </trkpt>
      <trkpt lat="43.76505" lon="7.29169">
        <ele>518</ele>
        <time>2014-05-17T10:26:52Z</time>
      </trkpt>
      <trkpt lat="43.76514" lon="7.29167">
        <ele>514.3</ele>
        <time>2014-05-17T10:26:56Z</time>
      </trkpt>
      <trkpt lat="43.76521" lon="7.2916">
        <ele>510.8</ele>
        <time>2014-05-17T10:27:02Z</time>
      </trkpt>
      <trkpt lat="43.76525" lon="7.29151">
        <ele>507.4</ele>
        <time>2014-05-17T10:27:15Z</time>
      </trkpt>
      <trkpt lat="43.76532" lon="7.29141">
        <ele>503.9</ele>
        <time>2014-05-17T10:27:45Z</time>
      </trkpt>
      <trkpt lat="43.76537" lon="7.2913">
        <ele>502.8</ele>
        <time>2014-05-17T10:27:54Z</time>
      </trkpt>
      <trkpt lat="43.76543" lon="7.29122">
        <ele>501.7</ele>
        <time>2014-05-17T10:28:01Z</time>
      </trkpt>
      <trkpt lat="43.76553" lon="7.29124">
        <ele>500.6</ele>
        <time>2014-05-17T10:29:31Z</time>
      </trkpt>
      <trkpt lat="43.76562" lon="7.29127">
        <ele>499.5</ele>
        <time>2014-05-17T10:29:38Z</time>
      </trkpt>
      <trkpt lat="43.76572" lon="7.2913">
        <ele>498.5</ele>
        <time>2014-05-17T10:29:48Z</time>
      </trkpt>
      <trkpt lat="43.76577" lon="7.29139">
        <ele>497.4</ele>
        <time>2014-05-17T10:29:52Z</time>
      </trkpt>
      <trkpt lat="43.76582" lon="7.29148">
        <ele>499.5</ele>
        <time>2014-05-17T10:29:56Z</time>
      </trkpt>
      <trkpt lat="43.76592" lon="7.29145">
        <ele>499</ele>
        <time>2014-05-17T10:30:01Z</time>
      </trkpt>
      <trkpt lat="43.76603" lon="7.29139">
        <ele>498.6</ele>
        <time>2014-05-17T10:30:05Z</time>
      </trkpt>
      <trkpt lat="43.76612" lon="7.29136">
        <ele>500.8</ele>
        <time>2014-05-17T10:30:08Z</time>
      </trkpt>
      <trkpt lat="43.76621" lon="7.29132">
        <ele>503</ele>
        <time>2014-05-17T10:30:12Z</time>
      </trkpt>
      <trkpt lat="43.76633" lon="7.29132">
        <ele>502.8</ele>
        <time>2014-05-17T10:30:16Z</time>
      </trkpt>
      <trkpt lat="43.76644" lon="7.29129">
        <ele>502.6</ele>
        <time>2014-05-17T10:30:20Z</time>
      </trkpt>
      <trkpt lat="43.76654" lon="7.2913">
        <ele>502.5</ele>
        <time>2014-05-17T10:30:23Z</time>
      </trkpt>
      <trkpt lat="43.76663" lon="7.29132">
        <ele>502.3</ele>
        <time>2014-05-17T10:30:26Z</time>
      </trkpt>
      <trkpt lat="43.76673" lon="7.29136">
        <ele>502.5</ele>
        <time>2014-05-17T10:30:30Z</time>
      </trkpt>
      <trkpt lat="43.76681" lon="7.29139">
        <ele>502.8</ele>
        <time>2014-05-17T10:30:38Z</time>
      </trkpt>
      <trkpt lat="43.7669" lon="7.2914">
        <ele>500.7</ele>
        <time>2014-05-17T10:30:44Z</time>
      </trkpt>
      <trkpt lat="43.76698" lon="7.29137">
        <ele>501.2</ele>
        <time>2014-05-17T10:30:52Z</time>
      </trkpt>
      <trkpt lat="43.76706" lon="7.29135">
        <ele>501.6</ele>
        <time>2014-05-17T10:30:55Z</time>
      </trkpt>
      <trkpt lat="43.76715" lon="7.29135">
        <ele>499.5</ele>
        <time>2014-05-17T10:31:01Z</time>
      </trkpt>
      <trkpt lat="43.76723" lon="7.2914">
        <ele>497.5</ele>
        <time>2014-05-17T10:32:39Z</time>
      </trkpt>
      <trkpt lat="43.7673" lon="7.2913">
        <ele>495.4</ele>
        <time>2014-05-17T10:32:59Z</time>
      </trkpt>
      <trkpt lat="43.76734" lon="7.2912">
        <ele>493.3</ele>
        <time>2014-05-17T10:33:02Z</time>
      </trkpt>
      <trkpt lat="43.7674" lon="7.29111">
        <ele>491.2</ele>
        <time>2014-05-17T10:33:05Z</time>
      </trkpt>
      <trkpt lat="43.76754" lon="7.29109">
        <ele>489.1</ele>
        <time>2014-05-17T10:33:32Z</time>
      </trkpt>
      <trkpt lat="43.76763" lon="7.29103">
        <ele>486.4</ele>
        <time>2014-05-17T10:33:40Z</time>
      </trkpt>
      <trkpt lat="43.76768" lon="7.29091">
        <ele>483.6</ele>
        <time>2014-05-17T10:33:45Z</time>
      </trkpt>
      <trkpt lat="43.76777" lon="7.29088">
        <ele>482.1</ele>
        <time>2014-05-17T10:34:03Z</time>
      </trkpt>
      <trkpt lat="43.76782" lon="7.29076">
        <ele>480.5</ele>
        <time>2014-05-17T10:35:02Z</time>
      </trkpt>
      <trkpt lat="43.76792" lon="7.29069">
        <ele>479</ele>
        <time>2014-05-17T10:35:12Z</time>
      </trkpt>
      <trkpt lat="43.76798" lon="7.2906">
        <ele>477.5</ele>
        <time>2014-05-17T10:35:15Z</time>
      </trkpt>
      <trkpt lat="43.76804" lon="7.29049">
        <ele>475.9</ele>
        <time>2014-05-17T10:35:18Z</time>
      </trkpt>
      <trkpt lat="43.76808" lon="7.29039">
        <ele>474.4</ele>
        <time>2014-05-17T10:35:22Z</time>
      </trkpt>
      <trkpt lat="43.76809" lon="7.29027">
        <ele>471</ele>
        <time>2014-05-17T10:35:27Z</time>
      </trkpt>
      <trkpt lat="43.76812" lon="7.29015">
        <ele>467.6</ele>
        <time>2014-05-17T10:35:31Z</time>
      </trkpt>
      <trkpt lat="43.76814" lon="7.29003">
        <ele>464.3</ele>
        <time>2014-05-17T10:35:38Z</time>
      </trkpt>
      <trkpt lat="43.76818" lon="7.28991">
        <ele>461.1</ele>
        <time>2014-05-17T10:35:43Z</time>
      </trkpt>
      <trkpt lat="43.76819" lon="7.28976">
        <ele>457.9</ele>
        <time>2014-05-17T10:35:46Z</time>
      </trkpt>
      <trkpt lat="43.76821" lon="7.28963">
        <ele>456.1</ele>
        <time>2014-05-17T10:35:50Z</time>
      </trkpt>
      <trkpt lat="43.76824" lon="7.28951">
        <ele>454.3</ele>
        <time>2014-05-17T10:35:54Z</time>
      </trkpt>
      <trkpt lat="43.76829" lon="7.2894">
        <ele>452.5</ele>
        <time>2014-05-17T10:35:59Z</time>
      </trkpt>
      <trkpt lat="43.76834" lon="7.28928">
        <ele>448.5</ele>
        <time>2014-05-17T10:36:03Z</time>
      </trkpt>
      <trkpt lat="43.76837" lon="7.28917">
        <ele>444.5</ele>
        <time>2014-05-17T10:36:08Z</time>
      </trkpt>
      <trkpt lat="43.76845" lon="7.28909">
        <ele>440.5</ele>
        <time>2014-05-17T10:36:26Z</time>
      </trkpt>
      <trkpt lat="43.76851" lon="7.289">
        <ele>438.3</ele>
        <time>2014-05-17T10:36:42Z</time>
      </trkpt>
      <trkpt lat="43.76854" lon="7.28889">
        <ele>438.1</ele>
        <time>2014-05-17T10:36:45Z</time>
      </trkpt>
      <trkpt lat="43.76858" lon="7.28878">
        <ele>437.9</ele>
        <time>2014-05-17T10:36:47Z</time>
      </trkpt>
      <trkpt lat="43.76865" lon="7.28868">
        <ele>437.7</ele>
        <time>2014-05-17T10:36:50Z</time>
      </trkpt>
      <trkpt lat="43.76871" lon="7.28859">
        <ele>437.5</ele>
        <time>2014-05-17T10:36:53Z</time>
      </trkpt>
      <trkpt lat="43.76877" lon="7.2885">
        <ele>437.4</ele>
        <time>2014-05-17T10:36:57Z</time>
      </trkpt>
      <trkpt lat="43.76882" lon="7.28839">
        <ele>436.9</ele>
        <time>2014-05-17T10:37:01Z</time>
      </trkpt>
      <trkpt lat="43.76889" lon="7.28833">
        <ele>436.5</ele>
        <time>2014-05-17T10:37:06Z</time>
      </trkpt>
      <trkpt lat="43.76899" lon="7.28822">
        <ele>438.2</ele>
        <time>2014-05-17T10:37:24Z</time>
      </trkpt>
      <trkpt lat="43.76906" lon="7.28817">
        <ele>439.9</ele>
        <time>2014-05-17T10:37:29Z</time>
      </trkpt>
      <trkpt lat="43.76913" lon="7.28808">
        <ele>441.6</ele>
        <time>2014-05-17T10:37:34Z</time>
      </trkpt>
      <trkpt lat="43.7692" lon="7.28799">
        <ele>443.4</ele>
        <time>2014-05-17T10:37:39Z</time>
      </trkpt>
      <trkpt lat="43.76924" lon="7.28786">
        <ele>443.1</ele>
        <time>2014-05-17T10:37:43Z</time>
      </trkpt>
      <trkpt lat="43.76928" lon="7.28773">
        <ele>441.3</ele>
        <time>2014-05-17T10:37:46Z</time>
      </trkpt>
      <trkpt lat="43.76934" lon="7.28762">
        <ele>439.5</ele>
        <time>2014-05-17T10:37:50Z</time>
      </trkpt>
      <trkpt lat="43.76941" lon="7.28748">
        <ele>436.4</ele>
        <time>2014-05-17T10:38:15Z</time>
      </trkpt>
      <trkpt lat="43.7695" lon="7.2874">
        <ele>433.3</ele>
        <time>2014-05-17T10:38:23Z</time>
      </trkpt>
      <trkpt lat="43.76959" lon="7.28733">
        <ele>430.5</ele>
        <time>2014-05-17T10:38:27Z</time>
      </trkpt>
      <trkpt lat="43.76965" lon="7.28724">
        <ele>427.6</ele>
        <time>2014-05-17T10:38:31Z</time>
      </trkpt>
      <trkpt lat="43.76974" lon="7.28721">
        <ele>424.8</ele>
        <time>2014-05-17T10:38:59Z</time>
      </trkpt>
      <trkpt lat="43.76981" lon="7.28715">
        <ele>422</ele>
        <time>2014-05-17T10:39:03Z</time>
      </trkpt>
      <trkpt lat="43.7699" lon="7.28708">
        <ele>419.2</ele>
        <time>2014-05-17T10:39:09Z</time>
      </trkpt>
      <trkpt lat="43.76997" lon="7.28705">
        <ele>416.4</ele>
        <time>2014-05-17T10:39:14Z</time>
      </trkpt>
      <trkpt lat="43.77009" lon="7.28702">
        <ele>412</ele>
        <time>2014-05-17T10:39:45Z</time>
      </trkpt>
      <trkpt lat="43.77014" lon="7.28691">
        <ele>409.2</ele>
        <time>2014-05-17T10:39:51Z</time>
      </trkpt>
      <trkpt lat="43.77022" lon="7.28693">
        <ele>406.4</ele>
        <time>2014-05-17T10:39:56Z</time>
      </trkpt>
      <trkpt lat="43.7703" lon="7.28697">
        <ele>404.8</ele>
        <time>2014-05-17T10:40:02Z</time>
      </trkpt>
      <trkpt lat="43.7704" lon="7.28694">
        <ele>403.3</ele>
        <time>2014-05-17T10:40:07Z</time>
      </trkpt>
      <trkpt lat="43.77046" lon="7.28685">
        <ele>400.5</ele>
        <time>2014-05-17T10:40:13Z</time>
      </trkpt>
      <trkpt lat="43.77054" lon="7.28679">
        <ele>397.6</ele>
        <time>2014-05-17T10:40:17Z</time>
      </trkpt>
      <trkpt lat="43.77061" lon="7.28672">
        <ele>394.8</ele>
        <time>2014-05-17T10:40:21Z</time>
      </trkpt>
      <trkpt lat="43.77068" lon="7.28651">
        <ele>392</ele>
        <time>2014-05-17T10:41:58Z</time>
      </trkpt>
      <trkpt lat="43.77073" lon="7.28641">
        <ele>389.2</ele>
        <time>2014-05-17T10:42:46Z</time>
      </trkpt>
      <trkpt lat="43.7708" lon="7.28634">
        <ele>386.4</ele>
        <time>2014-05-17T10:42:53Z</time>
      </trkpt>
      <trkpt lat="43.77085" lon="7.28622">
        <ele>385.1</ele>
        <time>2014-05-17T10:43:02Z</time>
      </trkpt>
      <trkpt lat="43.7709" lon="7.2861">
        <ele>383.8</ele>
        <time>2014-05-17T10:43:08Z</time>
      </trkpt>
      <trkpt lat="43.77094" lon="7.286">
        <ele>382.5</ele>
        <time>2014-05-17T10:43:12Z</time>
      </trkpt>
      <trkpt lat="43.77096" lon="7.28583">
        <ele>381.3</ele>
        <time>2014-05-17T10:43:18Z</time>
      </trkpt>
      <trkpt lat="43.77092" lon="7.2857">
        <ele>380</ele>
        <time>2014-05-17T10:43:22Z</time>
      </trkpt>
      <trkpt lat="43.77096" lon="7.28558">
        <ele>380</ele>
        <time>2014-05-17T10:43:28Z</time>
      </trkpt>
      <trkpt lat="43.77104" lon="7.28555">
        <ele>380</ele>
        <time>2014-05-17T10:43:33Z</time>
      </trkpt>
      <trkpt lat="43.77112" lon="7.28557">
        <ele>380</ele>
        <time>2014-05-17T10:43:37Z</time>
      </trkpt>
      <trkpt lat="43.77124" lon="7.28556">
        <ele>380</ele>
        <time>2014-05-17T10:51:46Z</time>
      </trkpt>
      <trkpt lat="43.77115" lon="7.28556">
        <ele>380</ele>
        <time>2014-05-17T10:52:51Z</time>
      </trkpt>
      <trkpt lat="43.77107" lon="7.28557">
        <ele>380</ele>
        <time>2014-05-17T10:52:55Z</time>
      </trkpt>
      <trkpt lat="43.77099" lon="7.28559">
        <ele>379.8</ele>
        <time>2014-05-17T10:53:02Z</time>
      </trkpt>
      <trkpt lat="43.77089" lon="7.28563">
        <ele>379.6</ele>
        <time>2014-05-17T10:53:07Z</time>
      </trkpt>
      <trkpt lat="43.7708" lon="7.28567">
        <ele>379.5</ele>
        <time>2014-05-17T10:53:09Z</time>
      </trkpt>
      <trkpt lat="43.77068" lon="7.28571">
        <ele>379.3</ele>
        <time>2014-05-17T10:53:11Z</time>
      </trkpt>
      <trkpt lat="43.77055" lon="7.28575">
        <ele>379.1</ele>
        <time>2014-05-17T10:53:13Z</time>
      </trkpt>
      <trkpt lat="43.77042" lon="7.28577">
        <ele>378.9</ele>
        <time>2014-05-17T10:53:15Z</time>
      </trkpt>
      <trkpt lat="43.77029" lon="7.28573">
        <ele>378.7</ele>
        <time>2014-05-17T10:53:17Z</time>
      </trkpt>
      <trkpt lat="43.77018" lon="7.28568">
        <ele>376</ele>
        <time>2014-05-17T10:53:19Z</time>
      </trkpt>
      <trkpt lat="43.7701" lon="7.28562">
        <ele>373.3</ele>
        <time>2014-05-17T10:53:21Z</time>
      </trkpt>
      <trkpt lat="43.77002" lon="7.28555">
        <ele>370.5</ele>
        <time>2014-05-17T10:53:23Z</time>
      </trkpt>
      <trkpt lat="43.76994" lon="7.28549">
        <ele>369.3</ele>
        <time>2014-05-17T10:53:25Z</time>
      </trkpt>
      <trkpt lat="43.76987" lon="7.28542">
        <ele>368.2</ele>
        <time>2014-05-17T10:53:29Z</time>
      </trkpt>
      <trkpt lat="43.7698" lon="7.28535">
        <ele>367.1</ele>
        <time>2014-05-17T10:53:34Z</time>
      </trkpt>
      <trkpt lat="43.76971" lon="7.28529">
        <ele>366</ele>
        <time>2014-05-17T10:53:38Z</time>
      </trkpt>
      <trkpt lat="43.76963" lon="7.28522">
        <ele>364.9</ele>
        <time>2014-05-17T10:53:42Z</time>
      </trkpt>
      <trkpt lat="43.76956" lon="7.28514">
        <ele>363.8</ele>
        <time>2014-05-17T10:53:46Z</time>
      </trkpt>
      <trkpt lat="43.76951" lon="7.28503">
        <ele>362.7</ele>
        <time>2014-05-17T10:53:50Z</time>
      </trkpt>
      <trkpt lat="43.76943" lon="7.28496">
        <ele>360</ele>
        <time>2014-05-17T10:53:54Z</time>
      </trkpt>
      <trkpt lat="43.76941" lon="7.28484">
        <ele>359.8</ele>
        <time>2014-05-17T10:54:00Z</time>
      </trkpt>
      <trkpt lat="43.76938" lon="7.28474">
        <ele>359.6</ele>
        <time>2014-05-17T10:54:23Z</time>
      </trkpt>
      <trkpt lat="43.76929" lon="7.28468">
        <ele>359.5</ele>
        <time>2014-05-17T10:55:38Z</time>
      </trkpt>
      <trkpt lat="43.76921" lon="7.28463">
        <ele>357.8</ele>
        <time>2014-05-17T10:55:51Z</time>
      </trkpt>
      <trkpt lat="43.76916" lon="7.28454">
        <ele>356.2</ele>
        <time>2014-05-17T10:55:55Z</time>
      </trkpt>
      <trkpt lat="43.7691" lon="7.28444">
        <ele>354.5</ele>
        <time>2014-05-17T10:55:59Z</time>
      </trkpt>
      <trkpt lat="43.76904" lon="7.28433">
        <ele>352.9</ele>
        <time>2014-05-17T10:56:02Z</time>
      </trkpt>
      <trkpt lat="43.76898" lon="7.28425">
        <ele>351.3</ele>
        <time>2014-05-17T10:56:05Z</time>
      </trkpt>
      <trkpt lat="43.76889" lon="7.28417">
        <ele>349.6</ele>
        <time>2014-05-17T10:56:08Z</time>
      </trkpt>
      <trkpt lat="43.76881" lon="7.28409">
        <ele>348</ele>
        <time>2014-05-17T10:56:11Z</time>
      </trkpt>
      <trkpt lat="43.76874" lon="7.28402">
        <ele>348</ele>
        <time>2014-05-17T10:56:14Z</time>
      </trkpt>
      <trkpt lat="43.76865" lon="7.28394">
        <ele>348</ele>
        <time>2014-05-17T10:56:17Z</time>
      </trkpt>
      <trkpt lat="43.76858" lon="7.28388">
        <ele>348</ele>
        <time>2014-05-17T10:56:20Z</time>
      </trkpt>
      <trkpt lat="43.76848" lon="7.28387">
        <ele>348</ele>
        <time>2014-05-17T10:56:24Z</time>
      </trkpt>
      <trkpt lat="43.76841" lon="7.28397">
        <ele>348</ele>
        <time>2014-05-17T10:56:28Z</time>
      </trkpt>
      <trkpt lat="43.76841" lon="7.28409">
        <ele>349.3</ele>
        <time>2014-05-17T10:56:32Z</time>
      </trkpt>
      <trkpt lat="43.76843" lon="7.28422">
        <ele>350.5</ele>
        <time>2014-05-17T10:56:36Z</time>
      </trkpt>
      <trkpt lat="43.76844" lon="7.28434">
        <ele>351.8</ele>
        <time>2014-05-17T10:56:41Z</time>
      </trkpt>
      <trkpt lat="43.76841" lon="7.28445">
        <ele>353.1</ele>
        <time>2014-05-17T10:56:45Z</time>
      </trkpt>
      <trkpt lat="43.76837" lon="7.28458">
        <ele>354.4</ele>
        <time>2014-05-17T10:56:49Z</time>
      </trkpt>
      <trkpt lat="43.76834" lon="7.28469">
        <ele>355.6</ele>
        <time>2014-05-17T10:56:53Z</time>
      </trkpt>
      <trkpt lat="43.7683" lon="7.28479">
        <ele>356.9</ele>
        <time>2014-05-17T10:56:58Z</time>
      </trkpt>
      <trkpt lat="43.76829" lon="7.28491">
        <ele>359.7</ele>
        <time>2014-05-17T10:57:03Z</time>
      </trkpt>
      <trkpt lat="43.76829" lon="7.28505">
        <ele>362.5</ele>
        <time>2014-05-17T10:57:09Z</time>
      </trkpt>
      <trkpt lat="43.7683" lon="7.28518">
        <ele>365.4</ele>
        <time>2014-05-17T10:57:13Z</time>
      </trkpt>
      <trkpt lat="43.76829" lon="7.2853">
        <ele>368.2</ele>
        <time>2014-05-17T10:57:18Z</time>
      </trkpt>
      <trkpt lat="43.76825" lon="7.2854">
        <ele>368.4</ele>
        <time>2014-05-17T10:57:22Z</time>
      </trkpt>
      <trkpt lat="43.76821" lon="7.28551">
        <ele>368.5</ele>
        <time>2014-05-17T10:57:25Z</time>
      </trkpt>
      <trkpt lat="43.76815" lon="7.28564">
        <ele>368.7</ele>
        <time>2014-05-17T10:57:29Z</time>
      </trkpt>
      <trkpt lat="43.7681" lon="7.28576">
        <ele>368.9</ele>
        <time>2014-05-17T10:57:32Z</time>
      </trkpt>
      <trkpt lat="43.76803" lon="7.28586">
        <ele>369.1</ele>
        <time>2014-05-17T10:57:36Z</time>
      </trkpt>
      <trkpt lat="43.76796" lon="7.28591">
        <ele>369.3</ele>
        <time>2014-05-17T10:57:40Z</time>
      </trkpt>
      <trkpt lat="43.76788" lon="7.28598">
        <ele>369.5</ele>
        <time>2014-05-17T10:57:43Z</time>
      </trkpt>
      <trkpt lat="43.7678" lon="7.28604">
        <ele>369.5</ele>
        <time>2014-05-17T10:57:47Z</time>
      </trkpt>
      <trkpt lat="43.76773" lon="7.28611">
        <ele>369.6</ele>
        <time>2014-05-17T10:57:51Z</time>
      </trkpt>
      <trkpt lat="43.76766" lon="7.28617">
        <ele>369.7</ele>
        <time>2014-05-17T10:57:55Z</time>
      </trkpt>
      <trkpt lat="43.76758" lon="7.28626">
        <ele>369.8</ele>
        <time>2014-05-17T10:58:00Z</time>
      </trkpt>
      <trkpt lat="43.76751" lon="7.28634">
        <ele>371.3</ele>
        <time>2014-05-17T10:58:06Z</time>
      </trkpt>
      <trkpt lat="43.76745" lon="7.28642">
        <ele>372.7</ele>
        <time>2014-05-17T10:58:11Z</time>
      </trkpt>
      <trkpt lat="43.76738" lon="7.28653">
        <ele>372.7</ele>
        <time>2014-05-17T10:58:14Z</time>
      </trkpt>
      <trkpt lat="43.76734" lon="7.28663">
        <ele>372.7</ele>
        <time>2014-05-17T10:58:19Z</time>
      </trkpt>
      <trkpt lat="43.76726" lon="7.28667">
        <ele>371</ele>
        <time>2014-05-17T10:58:32Z</time>
      </trkpt>
      <trkpt lat="43.76716" lon="7.28674">
        <ele>369.3</ele>
        <time>2014-05-17T11:01:31Z</time>
      </trkpt>
      <trkpt lat="43.76709" lon="7.28666">
        <ele>367.5</ele>
        <time>2014-05-17T11:01:50Z</time>
      </trkpt>
      <trkpt lat="43.76701" lon="7.2866">
        <ele>366.1</ele>
        <time>2014-05-17T11:01:58Z</time>
      </trkpt>
      <trkpt lat="43.76697" lon="7.28651">
        <ele>362.9</ele>
        <time>2014-05-17T11:02:07Z</time>
      </trkpt>
      <trkpt lat="43.76697" lon="7.28635">
        <ele>359.7</ele>
        <time>2014-05-17T11:02:20Z</time>
      </trkpt>
      <trkpt lat="43.76698" lon="7.28624">
        <ele>356.5</ele>
        <time>2014-05-17T11:02:33Z</time>
      </trkpt>
      <trkpt lat="43.76705" lon="7.28617">
        <ele>353.4</ele>
        <time>2014-05-17T11:03:32Z</time>
      </trkpt>
      <trkpt lat="43.76711" lon="7.286">
        <ele>350.2</ele>
        <time>2014-05-17T11:04:02Z</time>
      </trkpt>
      <trkpt lat="43.76707" lon="7.28588">
        <ele>348</ele>
        <time>2014-05-17T11:04:37Z</time>
      </trkpt>
      <trkpt lat="43.76699" lon="7.28585">
        <ele>344.3</ele>
        <time>2014-05-17T11:05:06Z</time>
      </trkpt>
      <trkpt lat="43.76704" lon="7.28575">
        <ele>344.3</ele>
        <time>2014-05-17T11:05:43Z</time>
      </trkpt>
      <trkpt lat="43.76701" lon="7.28564">
        <ele>342.3</ele>
        <time>2014-05-17T11:07:07Z</time>
      </trkpt>
      <trkpt lat="43.76707" lon="7.28549">
        <ele>340.3</ele>
        <time>2014-05-17T11:07:27Z</time>
      </trkpt>
      <trkpt lat="43.76714" lon="7.28539">
        <ele>336.5</ele>
        <time>2014-05-17T11:08:04Z</time>
      </trkpt>
      <trkpt lat="43.76705" lon="7.28541">
        <ele>334.5</ele>
        <time>2014-05-17T11:08:36Z</time>
      </trkpt>
      <trkpt lat="43.76697" lon="7.28543">
        <ele>332.5</ele>
        <time>2014-05-17T11:08:43Z</time>
      </trkpt>
      <trkpt lat="43.76689" lon="7.2854">
        <ele>330.5</ele>
        <time>2014-05-17T11:09:02Z</time>
      </trkpt>
      <trkpt lat="43.7668" lon="7.28539">
        <ele>328.5</ele>
        <time>2014-05-17T11:09:11Z</time>
      </trkpt>
      <trkpt lat="43.76671" lon="7.28538">
        <ele>326.5</ele>
        <time>2014-05-17T11:09:17Z</time>
      </trkpt>
      <trkpt lat="43.76665" lon="7.2853">
        <ele>325</ele>
        <time>2014-05-17T11:10:08Z</time>
      </trkpt>
      <trkpt lat="43.76659" lon="7.2852">
        <ele>323.4</ele>
        <time>2014-05-17T11:10:18Z</time>
      </trkpt>
      <trkpt lat="43.76661" lon="7.28509">
        <ele>321.4</ele>
        <time>2014-05-17T11:10:48Z</time>
      </trkpt>
      <trkpt lat="43.76657" lon="7.28498">
        <ele>321.4</ele>
        <time>2014-05-17T11:11:12Z</time>
      </trkpt>
      <trkpt lat="43.76653" lon="7.28488">
        <ele>321.4</ele>
        <time>2014-05-17T11:11:22Z</time>
      </trkpt>
      <trkpt lat="43.7665" lon="7.28474">
        <ele>319.7</ele>
        <time>2014-05-17T11:12:24Z</time>
      </trkpt>
      <trkpt lat="43.76649" lon="7.28459">
        <ele>318.1</ele>
        <time>2014-05-17T11:13:30Z</time>
      </trkpt>
      <trkpt lat="43.76654" lon="7.28468">
        <ele>316.5</ele>
        <time>2014-05-17T11:13:44Z</time>
      </trkpt>
      <trkpt lat="43.76652" lon="7.2848">
        <ele>314.8</ele>
        <time>2014-05-17T11:13:55Z</time>
      </trkpt>
      <trkpt lat="43.76648" lon="7.2847">
        <ele>313.2</ele>
        <time>2014-05-17T11:14:24Z</time>
      </trkpt>
      <trkpt lat="43.76648" lon="7.28456">
        <ele>311.5</ele>
        <time>2014-05-17T11:14:30Z</time>
      </trkpt>
      <trkpt lat="43.76654" lon="7.28449">
        <ele>311.5</ele>
        <time>2014-05-17T11:14:37Z</time>
      </trkpt>
      <trkpt lat="43.7666" lon="7.28438">
        <ele>311.5</ele>
        <time>2014-05-17T11:14:57Z</time>
      </trkpt>
      <trkpt lat="43.76668" lon="7.28442">
        <ele>309.9</ele>
        <time>2014-05-17T11:15:43Z</time>
      </trkpt>
      <trkpt lat="43.76659" lon="7.28439">
        <ele>308.3</ele>
        <time>2014-05-17T11:16:17Z</time>
      </trkpt>
      <trkpt lat="43.76658" lon="7.28451">
        <ele>306.6</ele>
        <time>2014-05-17T11:17:10Z</time>
      </trkpt>
      <trkpt lat="43.76644" lon="7.28462">
        <ele>306.6</ele>
        <time>2014-05-17T11:18:22Z</time>
      </trkpt>
      <trkpt lat="43.76643" lon="7.28447">
        <ele>306.6</ele>
        <time>2014-05-17T11:19:49Z</time>
      </trkpt>
      <trkpt lat="43.7665" lon="7.28435">
        <ele>306.6</ele>
        <time>2014-05-17T11:20:19Z</time>
      </trkpt>
      <trkpt lat="43.76643" lon="7.2844">
        <ele>306.6</ele>
        <time>2014-05-17T11:20:54Z</time>
      </trkpt>
      <trkpt lat="43.76633" lon="7.28442">
        <ele>306.6</ele>
        <time>2014-05-17T11:22:57Z</time>
      </trkpt>
      <trkpt lat="43.76644" lon="7.28445">
        <ele>306.6</ele>
        <time>2014-05-17T11:23:35Z</time>
      </trkpt>
      <trkpt lat="43.76654" lon="7.28448">
        <ele>305</ele>
        <time>2014-05-17T11:24:50Z</time>
      </trkpt>
      <trkpt lat="43.76645" lon="7.28449">
        <ele>305</ele>
        <time>2014-05-17T11:25:29Z</time>
      </trkpt>
      <trkpt lat="43.76648" lon="7.28438">
        <ele>305</ele>
        <time>2014-05-17T11:28:17Z</time>
      </trkpt>
      <trkpt lat="43.7664" lon="7.28428">
        <ele>305</ele>
        <time>2014-05-17T11:29:42Z</time>
      </trkpt>
      <trkpt lat="43.76647" lon="7.28434">
        <ele>303.8</ele>
        <time>2014-05-17T11:31:08Z</time>
      </trkpt>
      <trkpt lat="43.76642" lon="7.28425">
        <ele>302.6</ele>
        <time>2014-05-17T11:32:29Z</time>
      </trkpt>
      <trkpt lat="43.76648" lon="7.28414">
        <ele>301.5</ele>
        <time>2014-05-17T11:33:45Z</time>
      </trkpt>
      <trkpt lat="43.7665" lon="7.28403">
        <ele>300.3</ele>
        <time>2014-05-17T11:33:50Z</time>
      </trkpt>
      <trkpt lat="43.7665" lon="7.28389">
        <ele>299.1</ele>
        <time>2014-05-17T11:33:55Z</time>
      </trkpt>
      <trkpt lat="43.76648" lon="7.28376">
        <ele>298.7</ele>
        <time>2014-05-17T11:34:00Z</time>
      </trkpt>
      <trkpt lat="43.76643" lon="7.28366">
        <ele>298.4</ele>
        <time>2014-05-17T11:34:04Z</time>
      </trkpt>
      <trkpt lat="43.76639" lon="7.28356">
        <ele>298</ele>
        <time>2014-05-17T11:34:08Z</time>
      </trkpt>
      <trkpt lat="43.76634" lon="7.28346">
        <ele>297.6</ele>
        <time>2014-05-17T11:34:11Z</time>
      </trkpt>
      <trkpt lat="43.76628" lon="7.28338">
        <ele>297.3</ele>
        <time>2014-05-17T11:34:14Z</time>
      </trkpt>
      <trkpt lat="43.7662" lon="7.28333">
        <ele>296.9</ele>
        <time>2014-05-17T11:34:17Z</time>
      </trkpt>
      <trkpt lat="43.76613" lon="7.28329">
        <ele>297.7</ele>
        <time>2014-05-17T11:34:19Z</time>
      </trkpt>
      <trkpt lat="43.76603" lon="7.2833">
        <ele>298.5</ele>
        <time>2014-05-17T11:34:22Z</time>
      </trkpt>
      <trkpt lat="43.76594" lon="7.28334">
        <ele>299.4</ele>
        <time>2014-05-17T11:34:25Z</time>
      </trkpt>
      <trkpt lat="43.76586" lon="7.28339">
        <ele>302.3</ele>
        <time>2014-05-17T11:34:27Z</time>
      </trkpt>
      <trkpt lat="43.76577" lon="7.28346">
        <ele>305.2</ele>
        <time>2014-05-17T11:34:29Z</time>
      </trkpt>
      <trkpt lat="43.76569" lon="7.28354">
        <ele>307.3</ele>
        <time>2014-05-17T11:34:31Z</time>
      </trkpt>
      <trkpt lat="43.76562" lon="7.28364">
        <ele>309.4</ele>
        <time>2014-05-17T11:34:34Z</time>
      </trkpt>
      <trkpt lat="43.76555" lon="7.28375">
        <ele>311.5</ele>
        <time>2014-05-17T11:34:37Z</time>
      </trkpt>
      <trkpt lat="43.76549" lon="7.28385">
        <ele>313.5</ele>
        <time>2014-05-17T11:34:40Z</time>
      </trkpt>
      <trkpt lat="43.76543" lon="7.28397">
        <ele>315.6</ele>
        <time>2014-05-17T11:34:43Z</time>
      </trkpt>
      <trkpt lat="43.76534" lon="7.28407">
        <ele>317.7</ele>
        <time>2014-05-17T11:34:46Z</time>
      </trkpt>
      <trkpt lat="43.76526" lon="7.28412">
        <ele>319.8</ele>
        <time>2014-05-17T11:34:48Z</time>
      </trkpt>
      <trkpt lat="43.76515" lon="7.28414">
        <ele>321.9</ele>
        <time>2014-05-17T11:34:51Z</time>
      </trkpt>
      <trkpt lat="43.76504" lon="7.28412">
        <ele>323.5</ele>
        <time>2014-05-17T11:34:54Z</time>
      </trkpt>
      <trkpt lat="43.76493" lon="7.28409">
        <ele>323.1</ele>
        <time>2014-05-17T11:34:57Z</time>
      </trkpt>
      <trkpt lat="43.76483" lon="7.28409">
        <ele>322.6</ele>
        <time>2014-05-17T11:35:00Z</time>
      </trkpt>
      <trkpt lat="43.76473" lon="7.28409">
        <ele>322.2</ele>
        <time>2014-05-17T11:35:04Z</time>
      </trkpt>
      <trkpt lat="43.76463" lon="7.2841">
        <ele>321.7</ele>
        <time>2014-05-17T11:35:08Z</time>
      </trkpt>
      <trkpt lat="43.76454" lon="7.28409">
        <ele>321.3</ele>
        <time>2014-05-17T11:35:13Z</time>
      </trkpt>
      <trkpt lat="43.76446" lon="7.28411">
        <ele>320.8</ele>
        <time>2014-05-17T11:35:18Z</time>
      </trkpt>
      <trkpt lat="43.76437" lon="7.28412">
        <ele>320.4</ele>
        <time>2014-05-17T11:35:26Z</time>
      </trkpt>
      <trkpt lat="43.76429" lon="7.28415">
        <ele>319.9</ele>
        <time>2014-05-17T11:35:33Z</time>
      </trkpt>
      <trkpt lat="43.76422" lon="7.28421">
        <ele>319.5</ele>
        <time>2014-05-17T11:35:40Z</time>
      </trkpt>
      <trkpt lat="43.76413" lon="7.28426">
        <ele>319.7</ele>
        <time>2014-05-17T11:35:46Z</time>
      </trkpt>
      <trkpt lat="43.76405" lon="7.28431">
        <ele>320.5</ele>
        <time>2014-05-17T11:35:50Z</time>
      </trkpt>
      <trkpt lat="43.76396" lon="7.28439">
        <ele>321.2</ele>
        <time>2014-05-17T11:35:53Z</time>
      </trkpt>
      <trkpt lat="43.76389" lon="7.28446">
        <ele>321.9</ele>
        <time>2014-05-17T11:35:55Z</time>
      </trkpt>
      <trkpt lat="43.76383" lon="7.28454">
        <ele>322.6</ele>
        <time>2014-05-17T11:35:57Z</time>
      </trkpt>
      <trkpt lat="43.76377" lon="7.28462">
        <ele>323.4</ele>
        <time>2014-05-17T11:35:59Z</time>
      </trkpt>
      <trkpt lat="43.7637" lon="7.28471">
        <ele>324.1</ele>
        <time>2014-05-17T11:36:02Z</time>
      </trkpt>
      <trkpt lat="43.76362" lon="7.28481">
        <ele>324.8</ele>
        <time>2014-05-17T11:36:06Z</time>
      </trkpt>
      <trkpt lat="43.76357" lon="7.2849">
        <ele>325.5</ele>
        <time>2014-05-17T11:36:09Z</time>
      </trkpt>
      <trkpt lat="43.76351" lon="7.28499">
        <ele>326.3</ele>
        <time>2014-05-17T11:36:13Z</time>
      </trkpt>
      <trkpt lat="43.76345" lon="7.28509">
        <ele>327</ele>
        <time>2014-05-17T11:36:17Z</time>
      </trkpt>
      <trkpt lat="43.76338" lon="7.28517">
        <ele>328.9</ele>
        <time>2014-05-17T11:36:21Z</time>
      </trkpt>
      <trkpt lat="43.76328" lon="7.28514">
        <ele>330.8</ele>
        <time>2014-05-17T11:36:26Z</time>
      </trkpt>
      <trkpt lat="43.76321" lon="7.28509">
        <ele>332.7</ele>
        <time>2014-05-17T11:36:30Z</time>
      </trkpt>
      <trkpt lat="43.76313" lon="7.28504">
        <ele>334.6</ele>
        <time>2014-05-17T11:36:33Z</time>
      </trkpt>
      <trkpt lat="43.76301" lon="7.28501">
        <ele>336.5</ele>
        <time>2014-05-17T11:36:37Z</time>
      </trkpt>
      <trkpt lat="43.76294" lon="7.28499">
        <ele>338.5</ele>
        <time>2014-05-17T11:36:40Z</time>
      </trkpt>
      <trkpt lat="43.76283" lon="7.28497">
        <ele>340.4</ele>
        <time>2014-05-17T11:36:44Z</time>
      </trkpt>
      <trkpt lat="43.76271" lon="7.28496">
        <ele>342.3</ele>
        <time>2014-05-17T11:36:47Z</time>
      </trkpt>
      <trkpt lat="43.76262" lon="7.28492">
        <ele>341.1</ele>
        <time>2014-05-17T11:36:51Z</time>
      </trkpt>
      <trkpt lat="43.76255" lon="7.28484">
        <ele>339.9</ele>
        <time>2014-05-17T11:36:56Z</time>
      </trkpt>
      <trkpt lat="43.76247" lon="7.28477">
        <ele>339.9</ele>
        <time>2014-05-17T11:37:01Z</time>
      </trkpt>
      <trkpt lat="43.76238" lon="7.28471">
        <ele>338</ele>
        <time>2014-05-17T11:37:05Z</time>
      </trkpt>
      <trkpt lat="43.76231" lon="7.28464">
        <ele>336.1</ele>
        <time>2014-05-17T11:37:09Z</time>
      </trkpt>
      <trkpt lat="43.76222" lon="7.28456">
        <ele>334.2</ele>
        <time>2014-05-17T11:37:13Z</time>
      </trkpt>
      <trkpt lat="43.76215" lon="7.28451">
        <ele>332.3</ele>
        <time>2014-05-17T11:37:17Z</time>
      </trkpt>
      <trkpt lat="43.76207" lon="7.2845">
        <ele>330.4</ele>
        <time>2014-05-17T11:37:20Z</time>
      </trkpt>
      <trkpt lat="43.76198" lon="7.28447">
        <ele>328.5</ele>
        <time>2014-05-17T11:37:26Z</time>
      </trkpt>
      <trkpt lat="43.76188" lon="7.28441">
        <ele>326.5</ele>
        <time>2014-05-17T11:37:30Z</time>
      </trkpt>
      <trkpt lat="43.7618" lon="7.28438">
        <ele>324.6</ele>
        <time>2014-05-17T11:37:34Z</time>
      </trkpt>
      <trkpt lat="43.76172" lon="7.28436">
        <ele>326.9</ele>
        <time>2014-05-17T11:37:38Z</time>
      </trkpt>
      <trkpt lat="43.76163" lon="7.28432">
        <ele>329.2</ele>
        <time>2014-05-17T11:37:42Z</time>
      </trkpt>
      <trkpt lat="43.76153" lon="7.28433">
        <ele>330.3</ele>
        <time>2014-05-17T11:37:47Z</time>
      </trkpt>
      <trkpt lat="43.76144" lon="7.28429">
        <ele>331.4</ele>
        <time>2014-05-17T11:37:51Z</time>
      </trkpt>
      <trkpt lat="43.76136" lon="7.28429">
        <ele>332.5</ele>
        <time>2014-05-17T11:37:55Z</time>
      </trkpt>
      <trkpt lat="43.76126" lon="7.28425">
        <ele>333.5</ele>
        <time>2014-05-17T11:37:59Z</time>
      </trkpt>
      <trkpt lat="43.76117" lon="7.28424">
        <ele>334.6</ele>
        <time>2014-05-17T11:38:03Z</time>
      </trkpt>
      <trkpt lat="43.76108" lon="7.2842">
        <ele>335.7</ele>
        <time>2014-05-17T11:38:07Z</time>
      </trkpt>
      <trkpt lat="43.76099" lon="7.28415">
        <ele>336.8</ele>
        <time>2014-05-17T11:38:11Z</time>
      </trkpt>
      <trkpt lat="43.76091" lon="7.2841">
        <ele>337.9</ele>
        <time>2014-05-17T11:38:15Z</time>
      </trkpt>
      <trkpt lat="43.76081" lon="7.28408">
        <ele>340.3</ele>
        <time>2014-05-17T11:38:18Z</time>
      </trkpt>
      <trkpt lat="43.76072" lon="7.28404">
        <ele>341.5</ele>
        <time>2014-05-17T11:38:22Z</time>
      </trkpt>
      <trkpt lat="43.76063" lon="7.28403">
        <ele>342.8</ele>
        <time>2014-05-17T11:38:25Z</time>
      </trkpt>
      <trkpt lat="43.76054" lon="7.28402">
        <ele>344.1</ele>
        <time>2014-05-17T11:38:28Z</time>
      </trkpt>
      <trkpt lat="43.76045" lon="7.284">
        <ele>345.4</ele>
        <time>2014-05-17T11:38:31Z</time>
      </trkpt>
      <trkpt lat="43.76035" lon="7.284">
        <ele>346.6</ele>
        <time>2014-05-17T11:38:35Z</time>
      </trkpt>
      <trkpt lat="43.76026" lon="7.28398">
        <ele>347.9</ele>
        <time>2014-05-17T11:38:39Z</time>
      </trkpt>
      <trkpt lat="43.76018" lon="7.28397">
        <ele>349.2</ele>
        <time>2014-05-17T11:38:42Z</time>
      </trkpt>
      <trkpt lat="43.76009" lon="7.28394">
        <ele>347.4</ele>
        <time>2014-05-17T11:38:46Z</time>
      </trkpt>
      <trkpt lat="43.75998" lon="7.2839">
        <ele>346.8</ele>
        <time>2014-05-17T11:38:50Z</time>
      </trkpt>
      <trkpt lat="43.75989" lon="7.28386">
        <ele>346.3</ele>
        <time>2014-05-17T11:38:53Z</time>
      </trkpt>
      <trkpt lat="43.75981" lon="7.28384">
        <ele>344.5</ele>
        <time>2014-05-17T11:38:57Z</time>
      </trkpt>
      <trkpt lat="43.75973" lon="7.28379">
        <ele>342.6</ele>
        <time>2014-05-17T11:39:01Z</time>
      </trkpt>
      <trkpt lat="43.75965" lon="7.28373">
        <ele>340.8</ele>
        <time>2014-05-17T11:39:05Z</time>
      </trkpt>
      <trkpt lat="43.75958" lon="7.28368">
        <ele>339</ele>
        <time>2014-05-17T11:39:09Z</time>
      </trkpt>
      <trkpt lat="43.75949" lon="7.28364">
        <ele>337.2</ele>
        <time>2014-05-17T11:39:13Z</time>
      </trkpt>
      <trkpt lat="43.7594" lon="7.28361">
        <ele>335.4</ele>
        <time>2014-05-17T11:39:18Z</time>
      </trkpt>
      <trkpt lat="43.7593" lon="7.28359">
        <ele>333.5</ele>
        <time>2014-05-17T11:39:24Z</time>
      </trkpt>
      <trkpt lat="43.75921" lon="7.2836">
        <ele>332.5</ele>
        <time>2014-05-17T11:39:29Z</time>
      </trkpt>
      <trkpt lat="43.75912" lon="7.28362">
        <ele>334.6</ele>
        <time>2014-05-17T11:39:35Z</time>
      </trkpt>
      <trkpt lat="43.75904" lon="7.28366">
        <ele>335.5</ele>
        <time>2014-05-17T11:39:39Z</time>
      </trkpt>
      <trkpt lat="43.75896" lon="7.28368">
        <ele>336.3</ele>
        <time>2014-05-17T11:39:43Z</time>
      </trkpt>
      <trkpt lat="43.75887" lon="7.28369">
        <ele>337.1</ele>
        <time>2014-05-17T11:39:47Z</time>
      </trkpt>
      <trkpt lat="43.75879" lon="7.2837">
        <ele>337.1</ele>
        <time>2014-05-17T11:39:52Z</time>
      </trkpt>
      <trkpt lat="43.75869" lon="7.28369">
        <ele>337.1</ele>
        <time>2014-05-17T11:39:57Z</time>
      </trkpt>
      <trkpt lat="43.7586" lon="7.28371">
        <ele>337.1</ele>
        <time>2014-05-17T11:40:01Z</time>
      </trkpt>
      <trkpt lat="43.7587" lon="7.28375">
        <ele>337.1</ele>
        <time>2014-05-17T11:40:12Z</time>
      </trkpt>
      <trkpt lat="43.75879" lon="7.28373">
        <ele>337.1</ele>
        <time>2014-05-17T11:40:16Z</time>
      </trkpt>
      <trkpt lat="43.75887" lon="7.28372">
        <ele>337.9</ele>
        <time>2014-05-17T11:40:19Z</time>
      </trkpt>
      <trkpt lat="43.75898" lon="7.2837">
        <ele>337.9</ele>
        <time>2014-05-17T11:40:22Z</time>
      </trkpt>
      <trkpt lat="43.75908" lon="7.28369">
        <ele>337.9</ele>
        <time>2014-05-17T11:40:26Z</time>
      </trkpt>
      <trkpt lat="43.75897" lon="7.28367">
        <ele>337.9</ele>
        <time>2014-05-17T11:40:38Z</time>
      </trkpt>
      <trkpt lat="43.75888" lon="7.2837">
        <ele>339</ele>
        <time>2014-05-17T11:40:42Z</time>
      </trkpt>
      <trkpt lat="43.7588" lon="7.28374">
        <ele>339</ele>
        <time>2014-05-17T11:40:52Z</time>
      </trkpt>
      <trkpt lat="43.7587" lon="7.28374">
        <ele>339.8</ele>
        <time>2014-05-17T11:40:57Z</time>
      </trkpt>
      <trkpt lat="43.75861" lon="7.28373">
        <ele>340.6</ele>
        <time>2014-05-17T11:41:02Z</time>
      </trkpt>
      <trkpt lat="43.75852" lon="7.28376">
        <ele>342.5</ele>
        <time>2014-05-17T11:41:05Z</time>
      </trkpt>
      <trkpt lat="43.75844" lon="7.28378">
        <ele>344.5</ele>
        <time>2014-05-17T11:41:09Z</time>
      </trkpt>
      <trkpt lat="43.75836" lon="7.28377">
        <ele>344.9</ele>
        <time>2014-05-17T11:41:13Z</time>
      </trkpt>
      <trkpt lat="43.75827" lon="7.28377">
        <ele>344.5</ele>
        <time>2014-05-17T11:41:18Z</time>
      </trkpt>
      <trkpt lat="43.75817" lon="7.28375">
        <ele>344.2</ele>
        <time>2014-05-17T11:41:23Z</time>
      </trkpt>
      <trkpt lat="43.75809" lon="7.28378">
        <ele>343.8</ele>
        <time>2014-05-17T11:41:27Z</time>
      </trkpt>
      <trkpt lat="43.75801" lon="7.28382">
        <ele>343.5</ele>
        <time>2014-05-17T11:41:31Z</time>
      </trkpt>
      <trkpt lat="43.75792" lon="7.28386">
        <ele>342</ele>
        <time>2014-05-17T11:41:37Z</time>
      </trkpt>
      <trkpt lat="43.75784" lon="7.28387">
        <ele>341.6</ele>
        <time>2014-05-17T11:41:52Z</time>
      </trkpt>
      <trkpt lat="43.75782" lon="7.28399">
        <ele>341.3</ele>
        <time>2014-05-17T11:42:23Z</time>
      </trkpt>
      <trkpt lat="43.75784" lon="7.28388">
        <ele>340.9</ele>
        <time>2014-05-17T11:43:13Z</time>
      </trkpt>
      <trkpt lat="43.75776" lon="7.28383">
        <ele>339.5</ele>
        <time>2014-05-17T11:46:44Z</time>
      </trkpt>
      <trkpt lat="43.75778" lon="7.28394">
        <ele>338</ele>
        <time>2014-05-17T11:53:31Z</time>
      </trkpt>
      <trkpt lat="43.75775" lon="7.28405">
        <ele>338</ele>
        <time>2014-05-17T11:53:36Z</time>
      </trkpt>
      <trkpt lat="43.7577" lon="7.28418">
        <ele>338.8</ele>
        <time>2014-05-17T11:53:40Z</time>
      </trkpt>
      <trkpt lat="43.75765" lon="7.28429">
        <ele>339.6</ele>
        <time>2014-05-17T11:53:43Z</time>
      </trkpt>
      <trkpt lat="43.7576" lon="7.28438">
        <ele>340.5</ele>
        <time>2014-05-17T11:53:46Z</time>
      </trkpt>
      <trkpt lat="43.75754" lon="7.28448">
        <ele>341.3</ele>
        <time>2014-05-17T11:53:49Z</time>
      </trkpt>
      <trkpt lat="43.75749" lon="7.28459">
        <ele>342.1</ele>
        <time>2014-05-17T11:53:52Z</time>
      </trkpt>
      <trkpt lat="43.75743" lon="7.28472">
        <ele>342.9</ele>
        <time>2014-05-17T11:53:55Z</time>
      </trkpt>
      <trkpt lat="43.7574" lon="7.28484">
        <ele>343.7</ele>
        <time>2014-05-17T11:53:58Z</time>
      </trkpt>
      <trkpt lat="43.75739" lon="7.28497">
        <ele>344</ele>
        <time>2014-05-17T11:54:01Z</time>
      </trkpt>
      <trkpt lat="43.75741" lon="7.2851">
        <ele>344.3</ele>
        <time>2014-05-17T11:54:04Z</time>
      </trkpt>
      <trkpt lat="43.75745" lon="7.28523">
        <ele>344.5</ele>
        <time>2014-05-17T11:54:07Z</time>
      </trkpt>
      <trkpt lat="43.7575" lon="7.28533">
        <ele>344.8</ele>
        <time>2014-05-17T11:54:10Z</time>
      </trkpt>
      <trkpt lat="43.75756" lon="7.28541">
        <ele>344.3</ele>
        <time>2014-05-17T11:54:13Z</time>
      </trkpt>
      <trkpt lat="43.75764" lon="7.28548">
        <ele>345.6</ele>
        <time>2014-05-17T11:54:16Z</time>
      </trkpt>
      <trkpt lat="43.75772" lon="7.28553">
        <ele>347</ele>
        <time>2014-05-17T11:54:19Z</time>
      </trkpt>
      <trkpt lat="43.7578" lon="7.28558">
        <ele>348.4</ele>
        <time>2014-05-17T11:54:22Z</time>
      </trkpt>
      <trkpt lat="43.75788" lon="7.28565">
        <ele>349.7</ele>
        <time>2014-05-17T11:54:25Z</time>
      </trkpt>
      <trkpt lat="43.75795" lon="7.28573">
        <ele>351.1</ele>
        <time>2014-05-17T11:54:28Z</time>
      </trkpt>
      <trkpt lat="43.75804" lon="7.28579">
        <ele>352.5</ele>
        <time>2014-05-17T11:54:31Z</time>
      </trkpt>
      <trkpt lat="43.75812" lon="7.28585">
        <ele>354.4</ele>
        <time>2014-05-17T11:54:34Z</time>
      </trkpt>
      <trkpt lat="43.75819" lon="7.28591">
        <ele>356.5</ele>
        <time>2014-05-17T11:54:36Z</time>
      </trkpt>
      <trkpt lat="43.75827" lon="7.28597">
        <ele>358.5</ele>
        <time>2014-05-17T11:54:40Z</time>
      </trkpt>
      <trkpt lat="43.75836" lon="7.28605">
        <ele>360.6</ele>
        <time>2014-05-17T11:54:44Z</time>
      </trkpt>
      <trkpt lat="43.75841" lon="7.28615">
        <ele>362.7</ele>
        <time>2014-05-17T11:54:47Z</time>
      </trkpt>
      <trkpt lat="43.75841" lon="7.28627">
        <ele>362.9</ele>
        <time>2014-05-17T11:54:50Z</time>
      </trkpt>
      <trkpt lat="43.75836" lon="7.28639">
        <ele>363.1</ele>
        <time>2014-05-17T11:54:54Z</time>
      </trkpt>
      <trkpt lat="43.7583" lon="7.2865">
        <ele>363.3</ele>
        <time>2014-05-17T11:54:57Z</time>
      </trkpt>
      <trkpt lat="43.75824" lon="7.2866">
        <ele>360.7</ele>
        <time>2014-05-17T11:55:00Z</time>
      </trkpt>
      <trkpt lat="43.75818" lon="7.2867">
        <ele>358.2</ele>
        <time>2014-05-17T11:55:03Z</time>
      </trkpt>
      <trkpt lat="43.75813" lon="7.28679">
        <ele>357.5</ele>
        <time>2014-05-17T11:55:06Z</time>
      </trkpt>
      <trkpt lat="43.75807" lon="7.28688">
        <ele>356.9</ele>
        <time>2014-05-17T11:55:09Z</time>
      </trkpt>
      <trkpt lat="43.75801" lon="7.287">
        <ele>356.1</ele>
        <time>2014-05-17T11:55:12Z</time>
      </trkpt>
      <trkpt lat="43.75793" lon="7.28711">
        <ele>355.3</ele>
        <time>2014-05-17T11:55:15Z</time>
      </trkpt>
      <trkpt lat="43.75788" lon="7.2872">
        <ele>354.5</ele>
        <time>2014-05-17T11:55:18Z</time>
      </trkpt>
      <trkpt lat="43.75783" lon="7.28731">
        <ele>353.6</ele>
        <time>2014-05-17T11:55:21Z</time>
      </trkpt>
      <trkpt lat="43.75777" lon="7.28742">
        <ele>352.8</ele>
        <time>2014-05-17T11:55:24Z</time>
      </trkpt>
      <trkpt lat="43.75769" lon="7.28751">
        <ele>352</ele>
        <time>2014-05-17T11:55:27Z</time>
      </trkpt>
      <trkpt lat="43.75763" lon="7.2876">
        <ele>351.2</ele>
        <time>2014-05-17T11:55:30Z</time>
      </trkpt>
      <trkpt lat="43.75756" lon="7.28769">
        <ele>355.3</ele>
        <time>2014-05-17T11:55:33Z</time>
      </trkpt>
      <trkpt lat="43.75749" lon="7.28776">
        <ele>359.4</ele>
        <time>2014-05-17T11:55:36Z</time>
      </trkpt>
      <trkpt lat="43.75741" lon="7.28784">
        <ele>358.8</ele>
        <time>2014-05-17T11:55:40Z</time>
      </trkpt>
      <trkpt lat="43.75733" lon="7.2879">
        <ele>358.3</ele>
        <time>2014-05-17T11:55:44Z</time>
      </trkpt>
      <trkpt lat="43.75726" lon="7.28798">
        <ele>357.7</ele>
        <time>2014-05-17T11:55:48Z</time>
      </trkpt>
      <trkpt lat="43.75719" lon="7.28805">
        <ele>357.2</ele>
        <time>2014-05-17T11:55:52Z</time>
      </trkpt>
      <trkpt lat="43.75712" lon="7.28815">
        <ele>356.6</ele>
        <time>2014-05-17T11:55:56Z</time>
      </trkpt>
      <trkpt lat="43.75707" lon="7.28825">
        <ele>358.8</ele>
        <time>2014-05-17T11:56:00Z</time>
      </trkpt>
      <trkpt lat="43.75702" lon="7.28835">
        <ele>361.5</ele>
        <time>2014-05-17T11:56:04Z</time>
      </trkpt>
      <trkpt lat="43.75699" lon="7.28848">
        <ele>364.1</ele>
        <time>2014-05-17T11:56:08Z</time>
      </trkpt>
      <trkpt lat="43.757" lon="7.28861">
        <ele>366.7</ele>
        <time>2014-05-17T11:56:12Z</time>
      </trkpt>
      <trkpt lat="43.75704" lon="7.28871">
        <ele>367.2</ele>
        <time>2014-05-17T11:56:17Z</time>
      </trkpt>
      <trkpt lat="43.7571" lon="7.28881">
        <ele>367.6</ele>
        <time>2014-05-17T11:56:23Z</time>
      </trkpt>
      <trkpt lat="43.75716" lon="7.2889">
        <ele>370.8</ele>
        <time>2014-05-17T11:56:27Z</time>
      </trkpt>
      <trkpt lat="43.75721" lon="7.28902">
        <ele>374</ele>
        <time>2014-05-17T11:56:32Z</time>
      </trkpt>
      <trkpt lat="43.75726" lon="7.2891">
        <ele>377.2</ele>
        <time>2014-05-17T11:56:36Z</time>
      </trkpt>
      <trkpt lat="43.7573" lon="7.28921">
        <ele>379.5</ele>
        <time>2014-05-17T11:56:40Z</time>
      </trkpt>
      <trkpt lat="43.75735" lon="7.28932">
        <ele>381.7</ele>
        <time>2014-05-17T11:56:44Z</time>
      </trkpt>
      <trkpt lat="43.75742" lon="7.28941">
        <ele>381.3</ele>
        <time>2014-05-17T11:56:49Z</time>
      </trkpt>
      <trkpt lat="43.75749" lon="7.28947">
        <ele>380.4</ele>
        <time>2014-05-17T11:56:53Z</time>
      </trkpt>
      <trkpt lat="43.75755" lon="7.28955">
        <ele>379.5</ele>
        <time>2014-05-17T11:56:56Z</time>
      </trkpt>
      <trkpt lat="43.75763" lon="7.28967">
        <ele>381</ele>
        <time>2014-05-17T11:56:59Z</time>
      </trkpt>
      <trkpt lat="43.7577" lon="7.28976">
        <ele>382.5</ele>
        <time>2014-05-17T11:57:02Z</time>
      </trkpt>
      <trkpt lat="43.75777" lon="7.28985">
        <ele>384.1</ele>
        <time>2014-05-17T11:57:06Z</time>
      </trkpt>
      <trkpt lat="43.75784" lon="7.28991">
        <ele>385.6</ele>
        <time>2014-05-17T11:57:10Z</time>
      </trkpt>
      <trkpt lat="43.75793" lon="7.28997">
        <ele>387.2</ele>
        <time>2014-05-17T11:57:14Z</time>
      </trkpt>
      <trkpt lat="43.758" lon="7.29003">
        <ele>388.6</ele>
        <time>2014-05-17T11:57:18Z</time>
      </trkpt>
      <trkpt lat="43.75803" lon="7.29016">
        <ele>389.8</ele>
        <time>2014-05-17T11:57:22Z</time>
      </trkpt>
      <trkpt lat="43.75811" lon="7.29023">
        <ele>391</ele>
        <time>2014-05-17T11:57:27Z</time>
      </trkpt>
      <trkpt lat="43.75812" lon="7.29034">
        <ele>392.2</ele>
        <time>2014-05-17T11:57:33Z</time>
      </trkpt>
      <trkpt lat="43.75807" lon="7.29045">
        <ele>393.4</ele>
        <time>2014-05-17T11:57:36Z</time>
      </trkpt>
      <trkpt lat="43.758" lon="7.29053">
        <ele>394.5</ele>
        <time>2014-05-17T11:57:41Z</time>
      </trkpt>
      <trkpt lat="43.75792" lon="7.29059">
        <ele>393.3</ele>
        <time>2014-05-17T11:57:45Z</time>
      </trkpt>
      <trkpt lat="43.75782" lon="7.29061">
        <ele>392</ele>
        <time>2014-05-17T11:57:50Z</time>
      </trkpt>
      <trkpt lat="43.75775" lon="7.29064">
        <ele>390.7</ele>
        <time>2014-05-17T11:57:54Z</time>
      </trkpt>
      <trkpt lat="43.75766" lon="7.29069">
        <ele>389.5</ele>
        <time>2014-05-17T11:57:58Z</time>
      </trkpt>
      <trkpt lat="43.75758" lon="7.29075">
        <ele>388.2</ele>
        <time>2014-05-17T11:58:04Z</time>
      </trkpt>
      <trkpt lat="43.75751" lon="7.2908">
        <ele>386.6</ele>
        <time>2014-05-17T11:58:09Z</time>
      </trkpt>
      <trkpt lat="43.75742" lon="7.29084">
        <ele>386.3</ele>
        <time>2014-05-17T11:58:14Z</time>
      </trkpt>
      <trkpt lat="43.75734" lon="7.29088">
        <ele>385.9</ele>
        <time>2014-05-17T11:58:18Z</time>
      </trkpt>
      <trkpt lat="43.75726" lon="7.29091">
        <ele>385.5</ele>
        <time>2014-05-17T11:58:23Z</time>
      </trkpt>
      <trkpt lat="43.75718" lon="7.29094">
        <ele>385.2</ele>
        <time>2014-05-17T11:58:35Z</time>
      </trkpt>
      <trkpt lat="43.75709" lon="7.29094">
        <ele>384.8</ele>
        <time>2014-05-17T11:59:00Z</time>
      </trkpt>
      <trkpt lat="43.75701" lon="7.29098">
        <ele>384.5</ele>
        <time>2014-05-17T11:59:03Z</time>
      </trkpt>
      <trkpt lat="43.75692" lon="7.291">
        <ele>385.3</ele>
        <time>2014-05-17T11:59:06Z</time>
      </trkpt>
      <trkpt lat="43.75687" lon="7.29111">
        <ele>386.1</ele>
        <time>2014-05-17T11:59:08Z</time>
      </trkpt>
      <trkpt lat="43.75677" lon="7.29114">
        <ele>386.9</ele>
        <time>2014-05-17T11:59:12Z</time>
      </trkpt>
      <trkpt lat="43.75668" lon="7.29118">
        <ele>387.7</ele>
        <time>2014-05-17T11:59:17Z</time>
      </trkpt>
      <trkpt lat="43.75659" lon="7.29129">
        <ele>388.9</ele>
        <time>2014-05-17T12:00:06Z</time>
      </trkpt>
      <trkpt lat="43.75651" lon="7.29135">
        <ele>388.4</ele>
        <time>2014-05-17T12:00:11Z</time>
      </trkpt>
      <trkpt lat="43.75646" lon="7.29145">
        <ele>387.8</ele>
        <time>2014-05-17T12:00:15Z</time>
      </trkpt>
      <trkpt lat="43.7564" lon="7.29156">
        <ele>387.3</ele>
        <time>2014-05-17T12:00:20Z</time>
      </trkpt>
      <trkpt lat="43.75639" lon="7.29169">
        <ele>386.7</ele>
        <time>2014-05-17T12:00:25Z</time>
      </trkpt>
      <trkpt lat="43.7563" lon="7.29157">
        <ele>386.2</ele>
        <time>2014-05-17T12:01:30Z</time>
      </trkpt>
      <trkpt lat="43.75626" lon="7.29147">
        <ele>385.6</ele>
        <time>2014-05-17T12:01:33Z</time>
      </trkpt>
      <trkpt lat="43.75617" lon="7.29143">
        <ele>383.9</ele>
        <time>2014-05-17T12:01:40Z</time>
      </trkpt>
      <trkpt lat="43.75609" lon="7.29144">
        <ele>382.2</ele>
        <time>2014-05-17T12:01:44Z</time>
      </trkpt>
      <trkpt lat="43.756" lon="7.29143">
        <ele>380.5</ele>
        <time>2014-05-17T12:01:48Z</time>
      </trkpt>
      <trkpt lat="43.75591" lon="7.29143">
        <ele>378.7</ele>
        <time>2014-05-17T12:01:52Z</time>
      </trkpt>
      <trkpt lat="43.75583" lon="7.29148">
        <ele>377</ele>
        <time>2014-05-17T12:02:01Z</time>
      </trkpt>
      <trkpt lat="43.75585" lon="7.29161">
        <ele>376.5</ele>
        <time>2014-05-17T12:02:12Z</time>
      </trkpt>
      <trkpt lat="43.75586" lon="7.29174">
        <ele>375.9</ele>
        <time>2014-05-17T12:02:16Z</time>
      </trkpt>
      <trkpt lat="43.75588" lon="7.29186">
        <ele>375.4</ele>
        <time>2014-05-17T12:02:20Z</time>
      </trkpt>
      <trkpt lat="43.75592" lon="7.29198">
        <ele>374.8</ele>
        <time>2014-05-17T12:02:36Z</time>
      </trkpt>
      <trkpt lat="43.75591" lon="7.29212">
        <ele>374.3</ele>
        <time>2014-05-17T12:02:41Z</time>
      </trkpt>
      <trkpt lat="43.75589" lon="7.29225">
        <ele>373.7</ele>
        <time>2014-05-17T12:02:44Z</time>
      </trkpt>
      <trkpt lat="43.75587" lon="7.29237">
        <ele>372.8</ele>
        <time>2014-05-17T12:02:46Z</time>
      </trkpt>
      <trkpt lat="43.75586" lon="7.29252">
        <ele>371.9</ele>
        <time>2014-05-17T12:02:48Z</time>
      </trkpt>
      <trkpt lat="43.75584" lon="7.29266">
        <ele>371</ele>
        <time>2014-05-17T12:02:50Z</time>
      </trkpt>
      <trkpt lat="43.75581" lon="7.2928">
        <ele>370.1</ele>
        <time>2014-05-17T12:02:52Z</time>
      </trkpt>
      <trkpt lat="43.75578" lon="7.29295">
        <ele>369.2</ele>
        <time>2014-05-17T12:02:54Z</time>
      </trkpt>
      <trkpt lat="43.75576" lon="7.29309">
        <ele>368.8</ele>
        <time>2014-05-17T12:02:56Z</time>
      </trkpt>
      <trkpt lat="43.75577" lon="7.29322">
        <ele>368.7</ele>
        <time>2014-05-17T12:02:58Z</time>
      </trkpt>
      <trkpt lat="43.7558" lon="7.29334">
        <ele>368.6</ele>
        <time>2014-05-17T12:03:00Z</time>
      </trkpt>
      <trkpt lat="43.75589" lon="7.29344">
        <ele>368.5</ele>
        <time>2014-05-17T12:03:02Z</time>
      </trkpt>
      <trkpt lat="43.75593" lon="7.29356">
        <ele>368.5</ele>
        <time>2014-05-17T12:03:04Z</time>
      </trkpt>
      <trkpt lat="43.75594" lon="7.2937">
        <ele>368.4</ele>
        <time>2014-05-17T12:03:06Z</time>
      </trkpt>
      <trkpt lat="43.7559" lon="7.29384">
        <ele>368.6</ele>
        <time>2014-05-17T12:03:08Z</time>
      </trkpt>
      <trkpt lat="43.75581" lon="7.29397">
        <ele>367.9</ele>
        <time>2014-05-17T12:03:10Z</time>
      </trkpt>
      <trkpt lat="43.75573" lon="7.29409">
        <ele>367.2</ele>
        <time>2014-05-17T12:03:12Z</time>
      </trkpt>
      <trkpt lat="43.75564" lon="7.29421">
        <ele>366.5</ele>
        <time>2014-05-17T12:03:14Z</time>
      </trkpt>
      <trkpt lat="43.75555" lon="7.29435">
        <ele>365.7</ele>
        <time>2014-05-17T12:03:16Z</time>
      </trkpt>
      <trkpt lat="43.75547" lon="7.29447">
        <ele>365</ele>
        <time>2014-05-17T12:03:18Z</time>
      </trkpt>
      <trkpt lat="43.75541" lon="7.2946">
        <ele>364</ele>
        <time>2014-05-17T12:03:20Z</time>
      </trkpt>
      <trkpt lat="43.75535" lon="7.29471">
        <ele>363</ele>
        <time>2014-05-17T12:03:22Z</time>
      </trkpt>
      <trkpt lat="43.75529" lon="7.29482">
        <ele>361.6</ele>
        <time>2014-05-17T12:03:24Z</time>
      </trkpt>
      <trkpt lat="43.75524" lon="7.29496">
        <ele>360.3</ele>
        <time>2014-05-17T12:03:26Z</time>
      </trkpt>
      <trkpt lat="43.75523" lon="7.29511">
        <ele>358.9</ele>
        <time>2014-05-17T12:03:28Z</time>
      </trkpt>
      <trkpt lat="43.75523" lon="7.29526">
        <ele>357.5</ele>
        <time>2014-05-17T12:03:30Z</time>
      </trkpt>
      <trkpt lat="43.75526" lon="7.29543">
        <ele>357.2</ele>
        <time>2014-05-17T12:03:32Z</time>
      </trkpt>
      <trkpt lat="43.7553" lon="7.2956">
        <ele>356.5</ele>
        <time>2014-05-17T12:03:34Z</time>
      </trkpt>
      <trkpt lat="43.75529" lon="7.29578">
        <ele>355.9</ele>
        <time>2014-05-17T12:03:36Z</time>
      </trkpt>
      <trkpt lat="43.75527" lon="7.29596">
        <ele>355.3</ele>
        <time>2014-05-17T12:03:38Z</time>
      </trkpt>
      <trkpt lat="43.75525" lon="7.29613">
        <ele>354.6</ele>
        <time>2014-05-17T12:03:40Z</time>
      </trkpt>
      <trkpt lat="43.75522" lon="7.29628">
        <ele>354.2</ele>
        <time>2014-05-17T12:03:42Z</time>
      </trkpt>
      <trkpt lat="43.75518" lon="7.29638">
        <ele>353.7</ele>
        <time>2014-05-17T12:03:44Z</time>
      </trkpt>
      <trkpt lat="43.7551" lon="7.29646">
        <ele>353.5</ele>
        <time>2014-05-17T12:03:46Z</time>
      </trkpt>
      <trkpt lat="43.75502" lon="7.29648">
        <ele>353.3</ele>
        <time>2014-05-17T12:03:52Z</time>
      </trkpt>
      <trkpt lat="43.7551" lon="7.29653">
        <ele>353</ele>
        <time>2014-05-17T12:10:00Z</time>
      </trkpt>
    </trkseg>
  </trk>
</gpx>